Wetterdaten: Sonntag, 13.05.2012
Datum Zeit Temp. A. Feuchte A. Regen Wind Richtung Richtung Taupunkt Windchill Windben
13.05.2012 00:00 7,0 C 85 % 0,0 l/m 0,6 km/h (0 Bft) W 270 4,7 C 5,2 C 3,1 km/h (1 Bft)
13.05.2012 00:02 6,9 C 85 % 0,0 l/m 0,6 km/h (0 Bft) S-SW 202 4,6 C 5,2 C 0,0 km/h (0 Bft)
13.05.2012 00:04 6,9 C 85 % 0,0 l/m 0,8 km/h (0 Bft) S-SW 202 4,6 C 5,2 C 1,6 km/h (1 Bft)
13.05.2012 00:06 6,9 C 85 % 0,0 l/m 0,5 km/h (0 Bft) W 270 4,6 C 5,3 C 2,4 km/h (1 Bft)
13.05.2012 00:08 6,9 C 85 % 0,0 l/m 0,6 km/h (0 Bft) N 360 4,6 C 5,3 C 2,4 km/h (1 Bft)
13.05.2012 00:10 6,9 C 85 % 0,0 l/m 0,6 km/h (0 Bft) N 360 4,6 C 5,3 C 0,0 km/h (0 Bft)
13.05.2012 00:12 6,9 C 85 % 0,0 l/m 1,0 km/h (0 Bft) N-NO 22 4,6 C 5,4 C 2,4 km/h (1 Bft)
13.05.2012 00:14 6,8 C 85 % 0,0 l/m 1,0 km/h (0 Bft) N 360 4,5 C 5,4 C 2,4 km/h (1 Bft)
13.05.2012 00:16 6,9 C 85 % 0,0 l/m 1,0 km/h (0 Bft) N-NW 337 4,6 C 5,4 C 0,0 km/h (0 Bft)
13.05.2012 00:18 6,9 C 85 % 0,0 l/m 0,6 km/h (0 Bft) N-NO 22 4,6 C 5,4 C 0,0 km/h (0 Bft)
13.05.2012 00:20 6,9 C 86 % 0,0 l/m 0,6 km/h (0 Bft) N 360 4,7 C 5,4 C 0,0 km/h (0 Bft)
13.05.2012 00:22 6,8 C 86 % 0,0 l/m 0,3 km/h (0 Bft) SO 135 4,6 C 5,4 C 1,6 km/h (1 Bft)
13.05.2012 00:24 6,8 C 86 % 0,0 l/m 0,3 km/h (0 Bft) W 270 4,6 C 5,4 C 1,6 km/h (1 Bft)
13.05.2012 00:26 6,8 C 86 % 0,0 l/m 0,3 km/h (0 Bft) W-SW 247 4,6 C 5,4 C 0,0 km/h (0 Bft)
13.05.2012 00:28 6,9 C 86 % 0,0 l/m 0,3 km/h (0 Bft) W-SW 247 4,7 C 5,4 C 0,0 km/h (0 Bft)
13.05.2012 00:30 6,8 C 86 % 0,0 l/m 0,3 km/h (0 Bft) W-SW 247 4,6 C 5,4 C 0,0 km/h (0 Bft)
13.05.2012 00:32 6,9 C 86 % 0,0 l/m 0,3 km/h (0 Bft) NO 45 4,7 C 5,4 C 0,0 km/h (0 Bft)
13.05.2012 00:34 6,9 C 86 % 0,0 l/m 0,2 km/h (0 Bft) NO 45 4,7 C 5,4 C 0,0 km/h (0 Bft)
13.05.2012 00:36 6,9 C 86 % 0,0 l/m 0,2 km/h (0 Bft) O-NO 67 4,7 C 5,4 C 0,0 km/h (0 Bft)
13.05.2012 00:38 6,8 C 86 % 0,0 l/m 0,0 km/h (0 Bft) N-NO 22 4,6 C 5,4 C 0,0 km/h (0 Bft)
13.05.2012 00:40 6,9 C 86 % 0,0 l/m 0,0 km/h (0 Bft) NO 45 4,7 C 5,4 C 0,0 km/h (0 Bft)
13.05.2012 00:42 6,8 C 86 % 0,0 l/m 0,0 km/h (0 Bft) NO 45 4,6 C 5,3 C 0,0 km/h (0 Bft)
13.05.2012 00:44 6,8 C 86 % 0,0 l/m 0,0 km/h (0 Bft) N-NO 22 4,6 C 5,3 C 0,0 km/h (0 Bft)
13.05.2012 00:46 6,8 C 86 % 0,0 l/m 0,0 km/h (0 Bft) NO 45 4,6 C 5,3 C 0,0 km/h (0 Bft)
13.05.2012 00:48 6,8 C 86 % 0,0 l/m 0,0 km/h (0 Bft) NO 45 4,6 C 5,3 C 0,0 km/h (0 Bft)
13.05.2012 00:50 6,8 C 86 % 0,0 l/m 0,0 km/h (0 Bft) NO 45 4,6 C 5,3 C 0,0 km/h (0 Bft)
13.05.2012 00:52 6,8 C 86 % 0,0 l/m 0,0 km/h (0 Bft) N-NO 22 4,6 C 5,3 C 0,0 km/h (0 Bft)
13.05.2012 00:54 6,8 C 87 % 0,0 l/m 0,0 km/h (0 Bft) N 360 4,8 C 5,3 C 0,0 km/h (0 Bft)
13.05.2012 00:56 6,8 C 87 % 0,0 l/m 0,0 km/h (0 Bft) N-NW 337 4,8 C 5,3 C 0,0 km/h (0 Bft)
13.05.2012 00:58 6,8 C 87 % 0,0 l/m 0,0 km/h (0 Bft) N-NW 337 4,8 C 5,3 C 0,0 km/h (0 Bft)
13.05.2012 01:00 6,8 C 87 % 0,0 l/m 0,0 km/h (0 Bft) N 360 4,8 C 5,3 C 0,0 km/h (0 Bft)
13.05.2012 01:02 6,8 C 87 % 0,0 l/m 0,2 km/h (0 Bft) N-NO 22 4,8 C 5,3 C 0,0 km/h (0 Bft)
13.05.2012 01:04 6,9 C 87 % 0,0 l/m 0,2 km/h (0 Bft) N-NO 22 4,9 C 5,3 C 0,0 km/h (0 Bft)
13.05.2012 01:06 6,8 C 87 % 0,0 l/m 0,5 km/h (0 Bft) N-NO 22 4,8 C 5,4 C 3,2 km/h (1 Bft)
13.05.2012 01:08 6,8 C 87 % 0,0 l/m 0,6 km/h (0 Bft) NW 315 4,8 C 5,4 C 3,2 km/h (1 Bft)
13.05.2012 01:10 6,9 C 87 % 0,0 l/m 0,6 km/h (0 Bft) SO 135 4,9 C 5,4 C 1,8 km/h (1 Bft)
13.05.2012 01:12 6,8 C 87 % 0,0 l/m 0,5 km/h (0 Bft) W-NW 292 4,8 C 5,4 C 0,0 km/h (0 Bft)
13.05.2012 01:14 6,8 C 87 % 0,0 l/m 0,5 km/h (0 Bft) NO 45 4,8 C 5,4 C 0,0 km/h (0 Bft)
13.05.2012 01:16 6,9 C 86 % 0,0 l/m 0,5 km/h (0 Bft) O 90 4,7 C 5,4 C 0,0 km/h (0 Bft)
13.05.2012 01:18 6,9 C 86 % 0,0 l/m 0,0 km/h (0 Bft) NO 45 4,7 C 5,4 C 0,0 km/h (0 Bft)
13.05.2012 01:20 6,9 C 86 % 0,0 l/m 0,0 km/h (0 Bft) N 360 4,7 C 5,4 C 0,0 km/h (0 Bft)
13.05.2012 01:22 6,9 C 86 % 0,0 l/m 0,0 km/h (0 Bft) NO 45 4,7 C 5,4 C 0,0 km/h (0 Bft)
13.05.2012 01:24 6,9 C 86 % 0,0 l/m 0,0 km/h (0 Bft) N-NW 337 4,7 C 5,3 C 0,0 km/h (0 Bft)
13.05.2012 01:26 7,0 C 86 % 0,0 l/m 0,0 km/h (0 Bft) N-NO 22 4,8 C 5,3 C 0,0 km/h (0 Bft)
13.05.2012 01:28 7,1 C 86 % 0,0 l/m 0,0 km/h (0 Bft) O-SO 112 4,9 C 5,3 C 0,0 km/h (0 Bft)
13.05.2012 01:30 7,1 C 86 % 0,0 l/m 0,0 km/h (0 Bft) NO 45 4,9 C 5,3 C 0,0 km/h (0 Bft)
13.05.2012 01:32 7,0 C 86 % 0,0 l/m 0,0 km/h (0 Bft) NO 45 4,8 C 5,3 C 0,0 km/h (0 Bft)
13.05.2012 01:34 6,9 C 86 % 0,0 l/m 0,0 km/h (0 Bft) O 90 4,7 C 5,3 C 0,0 km/h (0 Bft)
13.05.2012 01:36 6,9 C 86 % 0,0 l/m 0,0 km/h (0 Bft) NO 45 4,7 C 5,3 C 0,0 km/h (0 Bft)
13.05.2012 01:38 7,0 C 86 % 0,0 l/m 0,0 km/h (0 Bft) N-NO 22 4,8 C 5,3 C 0,0 km/h (0 Bft)
13.05.2012 01:40 6,9 C 86 % 0,0 l/m 0,0 km/h (0 Bft) N-NO 22 4,7 C 5,3 C 1,9 km/h (1 Bft)
13.05.2012 01:42 6,9 C 86 % 0,0 l/m 0,3 km/h (0 Bft) N-NO 22 4,7 C 5,3 C 1,9 km/h (1 Bft)
13.05.2012 01:44 6,9 C 86 % 0,0 l/m 0,3 km/h (0 Bft) N 360 4,7 C 5,3 C 1,6 km/h (1 Bft)
13.05.2012 01:46 6,9 C 86 % 0,0 l/m 0,5 km/h (0 Bft) N 360 4,7 C 5,3 C 1,6 km/h (1 Bft)
13.05.2012 01:48 6,9 C 86 % 0,0 l/m 0,5 km/h (0 Bft) N-NO 22 4,7 C 5,3 C 1,6 km/h (1 Bft)
13.05.2012 01:50 6,9 C 86 % 0,0 l/m 0,5 km/h (0 Bft) N-NO 22 4,7 C 5,4 C 0,0 km/h (0 Bft)
13.05.2012 01:52 6,8 C 87 % 0,0 l/m 0,3 km/h (0 Bft) N 360 4,8 C 5,4 C 0,0 km/h (0 Bft)
13.05.2012 01:54 6,9 C 87 % 0,0 l/m 0,3 km/h (0 Bft) N-NO 22 4,9 C 5,4 C 0,0 km/h (0 Bft)
13.05.2012 01:56 6,8 C 87 % 0,0 l/m 0,3 km/h (0 Bft) N-NO 22 4,8 C 5,4 C 0,0 km/h (0 Bft)
13.05.2012 01:58 6,8 C 87 % 0,0 l/m 0,2 km/h (0 Bft) NO 45 4,8 C 5,4 C 0,0 km/h (0 Bft)
13.05.2012 02:00 6,9 C 87 % 0,0 l/m 0,2 km/h (0 Bft) NO 45 4,9 C 5,4 C 0,0 km/h (0 Bft)
13.05.2012 02:02 6,9 C 86 % 0,0 l/m 0,0 km/h (0 Bft) N-NO 22 4,7 C 5,3 C 0,0 km/h (0 Bft)
13.05.2012 02:04 6,8 C 86 % 0,0 l/m 0,0 km/h (0 Bft) NO 45 4,6 C 5,3 C 0,0 km/h (0 Bft)
13.05.2012 02:06 6,8 C 87 % 0,0 l/m 0,0 km/h (0 Bft) NO 45 4,8 C 5,3 C 0,0 km/h (0 Bft)
13.05.2012 02:08 6,8 C 87 % 0,0 l/m 0,0 km/h (0 Bft) NO 45 4,8 C 5,3 C 0,0 km/h (0 Bft)
13.05.2012 02:10 6,8 C 87 % 0,0 l/m 0,0 km/h (0 Bft) O 90 4,8 C 5,3 C 1,6 km/h (1 Bft)
13.05.2012 02:12 6,8 C 87 % 0,0 l/m 0,0 km/h (0 Bft) NO 45 4,8 C 5,3 C 1,6 km/h (1 Bft)
13.05.2012 02:14 6,7 C 86 % 0,0 l/m 0,0 km/h (0 Bft) N-NW 337 4,5 C 5,3 C 0,0 km/h (0 Bft)
13.05.2012 02:16 6,8 C 87 % 0,0 l/m 0,2 km/h (0 Bft) N 360 4,8 C 5,3 C 0,0 km/h (0 Bft)
13.05.2012 02:18 6,7 C 86 % 0,0 l/m 0,2 km/h (0 Bft) NW 315 4,5 C 5,3 C 0,0 km/h (0 Bft)
13.05.2012 02:20 6,8 C 87 % 0,0 l/m 0,2 km/h (0 Bft) SO 135 4,8 C 5,3 C 0,0 km/h (0 Bft)
13.05.2012 02:22 6,8 C 87 % 0,0 l/m 0,2 km/h (0 Bft) O-NO 67 4,8 C 5,3 C 0,0 km/h (0 Bft)
13.05.2012 02:24 6,9 C 87 % 0,0 l/m 0,2 km/h (0 Bft) N-NO 22 4,9 C 5,3 C 0,0 km/h (0 Bft)
13.05.2012 02:26 6,8 C 87 % 0,0 l/m 0,0 km/h (0 Bft) NO 45 4,8 C 5,3 C 0,0 km/h (0 Bft)
13.05.2012 02:28 6,9 C 87 % 0,0 l/m 0,0 km/h (0 Bft) O-NO 67 4,9 C 5,3 C 0,0 km/h (0 Bft)
13.05.2012 02:30 6,9 C 87 % 0,0 l/m 0,0 km/h (0 Bft) NO 45 4,9 C 5,3 C 0,0 km/h (0 Bft)
13.05.2012 02:32 6,8 C 87 % 0,0 l/m 0,0 km/h (0 Bft) N-NO 22 4,8 C 5,3 C 0,0 km/h (0 Bft)
13.05.2012 02:34 6,8 C 87 % 0,0 l/m 0,0 km/h (0 Bft) NO 45 4,8 C 5,3 C 0,0 km/h (0 Bft)
13.05.2012 02:36 6,7 C 87 % 0,0 l/m 0,0 km/h (0 Bft) N-NO 22 4,7 C 5,2 C 0,0 km/h (0 Bft)
13.05.2012 02:38 6,7 C 87 % 0,0 l/m 0,0 km/h (0 Bft) N 360 4,7 C 5,2 C 0,0 km/h (0 Bft)
13.05.2012 02:40 6,7 C 87 % 0,0 l/m 0,2 km/h (0 Bft) N-NO 22 4,7 C 5,2 C 0,0 km/h (0 Bft)
13.05.2012 02:42 6,7 C 87 % 0,0 l/m 0,2 km/h (0 Bft) NW 315 4,7 C 5,2 C 0,0 km/h (0 Bft)
13.05.2012 02:44 6,7 C 87 % 0,0 l/m 0,2 km/h (0 Bft) N 360 4,7 C 5,2 C 0,0 km/h (0 Bft)
13.05.2012 02:46 6,7 C 87 % 0,0 l/m 0,2 km/h (0 Bft) N 360 4,7 C 5,2 C 0,0 km/h (0 Bft)
13.05.2012 02:48 6,7 C 87 % 0,0 l/m 0,2 km/h (0 Bft) N 360 4,7 C 5,2 C 0,0 km/h (0 Bft)
13.05.2012 02:50 6,7 C 87 % 0,0 l/m 0,0 km/h (0 Bft) N 360 4,7 C 5,1 C 0,0 km/h (0 Bft)
13.05.2012 02:52 6,7 C 87 % 0,0 l/m 0,0 km/h (0 Bft) N-NO 22 4,7 C 5,1 C 0,0 km/h (0 Bft)
13.05.2012 02:54 6,7 C 87 % 0,0 l/m 0,0 km/h (0 Bft) NO 45 4,7 C 5,1 C 0,0 km/h (0 Bft)
13.05.2012 02:56 6,7 C 87 % 0,0 l/m 0,0 km/h (0 Bft) N-NO 22 4,7 C 5,1 C 0,0 km/h (0 Bft)
13.05.2012 02:58 6,7 C 87 % 0,0 l/m 0,0 km/h (0 Bft) N-NO 22 4,7 C 5,1 C 0,0 km/h (0 Bft)
13.05.2012 03:00 6,7 C 87 % 0,0 l/m 0,0 km/h (0 Bft) N-NO 22 4,7 C 5,1 C 0,0 km/h (0 Bft)
13.05.2012 03:02 6,7 C 87 % 0,0 l/m 0,0 km/h (0 Bft) NO 45 4,7 C 5,1 C 0,0 km/h (0 Bft)
13.05.2012 03:04 6,7 C 87 % 0,0 l/m 0,0 km/h (0 Bft) SO 135 4,7 C 5,1 C 0,0 km/h (0 Bft)
13.05.2012 03:06 6,8 C 87 % 0,0 l/m 0,0 km/h (0 Bft) O-SO 112 4,8 C 5,2 C 0,0 km/h (0 Bft)
13.05.2012 03:08 6,8 C 87 % 0,0 l/m 0,0 km/h (0 Bft) N-NO 22 4,8 C 5,2 C 0,0 km/h (0 Bft)
13.05.2012 03:10 6,9 C 87 % 0,0 l/m 0,0 km/h (0 Bft) N-NO 22 4,9 C 5,2 C 0,0 km/h (0 Bft)
13.05.2012 03:12 6,8 C 87 % 0,0 l/m 0,0 km/h (0 Bft) O-NO 67 4,8 C 5,2 C 0,0 km/h (0 Bft)
13.05.2012 03:14 6,8 C 87 % 0,0 l/m 0,0 km/h (0 Bft) NO 45 4,8 C 5,2 C 0,0 km/h (0 Bft)
13.05.2012 03:16 6,8 C 87 % 0,0 l/m 0,0 km/h (0 Bft) N-NO 22 4,8 C 5,2 C 0,0 km/h (0 Bft)
13.05.2012 03:18 6,7 C 87 % 0,0 l/m 0,0 km/h (0 Bft) N-NO 22 4,7 C 5,2 C 0,0 km/h (0 Bft)
13.05.2012 03:20 6,7 C 87 % 0,0 l/m 0,0 km/h (0 Bft) N-NO 22 4,7 C 5,2 C 0,0 km/h (0 Bft)
13.05.2012 03:22 6,7 C 87 % 0,0 l/m 0,0 km/h (0 Bft) N-NO 22 4,7 C 5,2 C 0,0 km/h (0 Bft)
13.05.2012 03:24 6,7 C 87 % 0,0 l/m 0,0 km/h (0 Bft) N-NO 22 4,7 C 5,1 C 0,0 km/h (0 Bft)
13.05.2012 03:26 6,6 C 87 % 0,0 l/m 0,0 km/h (0 Bft) N-NO 22 4,6 C 5,1 C 0,0 km/h (0 Bft)
13.05.2012 03:28 6,7 C 87 % 0,0 l/m 0,0 km/h (0 Bft) N-NO 22 4,7 C 5,1 C 0,0 km/h (0 Bft)
13.05.2012 03:30 6,7 C 87 % 0,0 l/m 0,0 km/h (0 Bft) N-NO 22 4,7 C 5,2 C 0,0 km/h (0 Bft)
13.05.2012 03:32 6,7 C 87 % 0,0 l/m 0,0 km/h (0 Bft) N-NO 22 4,7 C 5,1 C 0,0 km/h (0 Bft)
13.05.2012 03:34 6,7 C 87 % 0,0 l/m 0,0 km/h (0 Bft) N-NO 22 4,7 C 5,1 C 0,0 km/h (0 Bft)
13.05.2012 03:36 6,7 C 87 % 0,0 l/m 0,0 km/h (0 Bft) NO 45 4,7 C 5,1 C 0,0 km/h (0 Bft)
13.05.2012 03:38 6,7 C 87 % 0,0 l/m 0,0 km/h (0 Bft) N-NO 22 4,7 C 5,1 C 0,0 km/h (0 Bft)
13.05.2012 03:40 6,7 C 87 % 0,0 l/m 0,0 km/h (0 Bft) SO 135 4,7 C 5,1 C 0,0 km/h (0 Bft)
13.05.2012 03:42 6,7 C 87 % 0,0 l/m 0,0 km/h (0 Bft) SO 135 4,7 C 5,1 C 0,0 km/h (0 Bft)
13.05.2012 03:44 6,8 C 87 % 0,0 l/m 0,0 km/h (0 Bft) S 180 4,8 C 5,1 C 0,0 km/h (0 Bft)
13.05.2012 03:46 6,7 C 87 % 0,0 l/m 0,0 km/h (0 Bft) S-SO 157 4,7 C 5,1 C 0,0 km/h (0 Bft)
13.05.2012 03:48 6,8 C 87 % 0,0 l/m 0,0 km/h (0 Bft) NW 315 4,8 C 5,1 C 0,0 km/h (0 Bft)
13.05.2012 03:50 6,8 C 87 % 0,0 l/m 0,0 km/h (0 Bft) O-SO 112 4,8 C 5,1 C 0,0 km/h (0 Bft)
13.05.2012 03:52 6,8 C 87 % 0,0 l/m 0,0 km/h (0 Bft) S-SO 157 4,8 C 5,1 C 0,0 km/h (0 Bft)
13.05.2012 03:54 6,8 C 87 % 0,0 l/m 0,0 km/h (0 Bft) S-SW 202 4,8 C 5,1 C 0,0 km/h (0 Bft)
13.05.2012 03:56 6,9 C 87 % 0,0 l/m 0,0 km/h (0 Bft) N-NO 22 4,9 C 5,1 C 0,0 km/h (0 Bft)
13.05.2012 03:58 6,9 C 87 % 0,0 l/m 0,0 km/h (0 Bft) O-NO 67 4,9 C 5,2 C 0,0 km/h (0 Bft)
13.05.2012 04:00 6,9 C 87 % 0,0 l/m 0,0 km/h (0 Bft) N-NO 22 4,9 C 5,2 C 0,0 km/h (0 Bft)
13.05.2012 04:02 6,8 C 87 % 0,0 l/m 0,0 km/h (0 Bft) N 360 4,8 C 5,2 C 0,0 km/h (0 Bft)
13.05.2012 04:04 6,8 C 87 % 0,0 l/m 0,0 km/h (0 Bft) N 360 4,8 C 5,2 C 0,0 km/h (0 Bft)
13.05.2012 04:06 6,8 C 87 % 0,0 l/m 0,0 km/h (0 Bft) N-NO 22 4,8 C 5,2 C 0,0 km/h (0 Bft)
13.05.2012 04:08 6,9 C 87 % 0,0 l/m 0,0 km/h (0 Bft) NO 45 4,9 C 5,3 C 0,0 km/h (0 Bft)
13.05.2012 04:10 6,9 C 87 % 0,0 l/m 0,0 km/h (0 Bft) W-SW 247 4,9 C 5,3 C 0,0 km/h (0 Bft)
13.05.2012 04:12 6,9 C 87 % 0,0 l/m 0,2 km/h (0 Bft) W-SW 247 4,9 C 5,3 C 1,8 km/h (1 Bft)
13.05.2012 04:14 6,9 C 87 % 0,0 l/m 0,3 km/h (0 Bft) S-SW 202 4,9 C 5,3 C 2,1 km/h (1 Bft)
13.05.2012 04:16 6,9 C 87 % 0,0 l/m 0,5 km/h (0 Bft) W-SW 247 4,9 C 5,3 C 2,1 km/h (1 Bft)
13.05.2012 04:18 6,9 C 87 % 0,0 l/m 0,5 km/h (0 Bft) W-SW 247 4,9 C 5,3 C 0,0 km/h (0 Bft)
13.05.2012 04:20 6,9 C 87 % 0,0 l/m 0,5 km/h (0 Bft) S-SW 202 4,9 C 5,3 C 0,0 km/h (0 Bft)
13.05.2012 04:22 6,9 C 87 % 0,0 l/m 0,5 km/h (0 Bft) W 270 4,9 C 5,3 C 0,0 km/h (0 Bft)
13.05.2012 04:24 6,9 C 87 % 0,0 l/m 0,3 km/h (0 Bft) N-NW 337 4,9 C 5,2 C 0,0 km/h (0 Bft)
13.05.2012 04:26 6,9 C 87 % 0,0 l/m 0,2 km/h (0 Bft) N 360 4,9 C 5,2 C 0,0 km/h (0 Bft)
13.05.2012 04:28 6,9 C 86 % 0,0 l/m 0,0 km/h (0 Bft) N-NW 337 4,7 C 5,2 C 0,0 km/h (0 Bft)
13.05.2012 04:30 6,8 C 86 % 0,0 l/m 0,0 km/h (0 Bft) W-NW 292 4,6 C 5,2 C 0,0 km/h (0 Bft)
13.05.2012 04:32 6,8 C 86 % 0,0 l/m 0,2 km/h (0 Bft) NW 315 4,6 C 5,1 C 0,0 km/h (0 Bft)
13.05.2012 04:34 6,9 C 86 % 0,0 l/m 0,3 km/h (0 Bft) NW 315 4,7 C 5,1 C 3,5 km/h (1 Bft)
13.05.2012 04:36 6,8 C 86 % 0,0 l/m 0,6 km/h (0 Bft) N-NW 337 4,6 C 5,1 C 3,5 km/h (1 Bft)
13.05.2012 04:38 6,7 C 86 % 0,0 l/m 0,6 km/h (0 Bft) N 360 4,5 C 5,1 C 2,1 km/h (1 Bft)
13.05.2012 04:40 6,7 C 86 % 0,0 l/m 0,8 km/h (0 Bft) N-NW 337 4,5 C 5,1 C 0,0 km/h (0 Bft)
13.05.2012 04:42 6,7 C 86 % 0,0 l/m 0,8 km/h (0 Bft) N-NO 22 4,5 C 5,1 C 0,0 km/h (0 Bft)
13.05.2012 04:44 6,7 C 86 % 0,0 l/m 0,8 km/h (0 Bft) N 360 4,5 C 5,0 C 0,0 km/h (0 Bft)
13.05.2012 04:46 6,7 C 86 % 0,0 l/m 0,5 km/h (0 Bft) N-NW 337 4,5 C 5,0 C 1,6 km/h (1 Bft)
13.05.2012 04:48 6,6 C 86 % 0,0 l/m 0,5 km/h (0 Bft) N 360 4,4 C 5,0 C 1,6 km/h (1 Bft)
13.05.2012 04:50 6,5 C 86 % 0,0 l/m 0,5 km/h (0 Bft) NO 45 4,3 C 4,8 C 1,6 km/h (1 Bft)
13.05.2012 04:52 6,5 C 87 % 0,0 l/m 0,5 km/h (0 Bft) N-NO 22 4,5 C 4,8 C 1,9 km/h (1 Bft)
13.05.2012 04:54 6,5 C 87 % 0,0 l/m 0,3 km/h (0 Bft) O-NO 67 4,5 C 4,8 C 1,9 km/h (1 Bft)
13.05.2012 04:56 6,5 C 87 % 0,0 l/m 0,3 km/h (0 Bft) NW 315 4,5 C 4,8 C 0,0 km/h (0 Bft)
13.05.2012 04:58 6,5 C 87 % 0,0 l/m 0,3 km/h (0 Bft) S 180 4,5 C 4,8 C 0,0 km/h (0 Bft)
13.05.2012 05:00 6,5 C 87 % 0,0 l/m 0,2 km/h (0 Bft) W-NW 292 4,5 C 4,8 C 0,0 km/h (0 Bft)
13.05.2012 05:02 6,6 C 87 % 0,0 l/m 0,0 km/h (0 Bft) O-SO 112 4,6 C 4,8 C 0,0 km/h (0 Bft)
13.05.2012 05:04 6,5 C 87 % 0,0 l/m 0,0 km/h (0 Bft) S 180 4,5 C 4,7 C 0,0 km/h (0 Bft)
13.05.2012 05:06 6,7 C 87 % 0,0 l/m 0,0 km/h (0 Bft) N 360 4,7 C 4,7 C 0,0 km/h (0 Bft)
13.05.2012 05:08 6,6 C 87 % 0,0 l/m 0,0 km/h (0 Bft) N-NO 22 4,6 C 4,7 C 0,0 km/h (0 Bft)
13.05.2012 05:10 6,5 C 87 % 0,0 l/m 0,0 km/h (0 Bft) SO 135 4,5 C 4,7 C 0,0 km/h (0 Bft)
13.05.2012 05:12 6,7 C 87 % 0,0 l/m 0,0 km/h (0 Bft) N 360 4,7 C 4,6 C 0,0 km/h (0 Bft)
13.05.2012 05:14 6,7 C 87 % 0,0 l/m 0,0 km/h (0 Bft) W-SW 247 4,7 C 4,6 C 1,8 km/h (1 Bft)
13.05.2012 05:16 6,6 C 86 % 0,0 l/m 0,3 km/h (0 Bft) N 360 4,4 C 4,6 C 2,7 km/h (1 Bft)
13.05.2012 05:18 6,6 C 86 % 0,0 l/m 0,5 km/h (0 Bft) W-SW 247 4,4 C 4,6 C 2,7 km/h (1 Bft)
13.05.2012 05:20 6,6 C 86 % 0,0 l/m 0,5 km/h (0 Bft) W-NW 292 4,4 C 4,6 C 0,0 km/h (0 Bft)
13.05.2012 05:22 6,5 C 86 % 0,0 l/m 0,5 km/h (0 Bft) NW 315 4,3 C 4,6 C 0,0 km/h (0 Bft)
13.05.2012 05:24 6,5 C 86 % 0,0 l/m 0,5 km/h (0 Bft) N-NO 22 4,3 C 4,6 C 0,0 km/h (0 Bft)
13.05.2012 05:26 6,5 C 86 % 0,0 l/m 0,3 km/h (0 Bft) N-NW 337 4,3 C 4,5 C 0,0 km/h (0 Bft)
13.05.2012 05:28 6,4 C 86 % 0,0 l/m 0,0 km/h (0 Bft) N 360 4,2 C 4,5 C 0,0 km/h (0 Bft)
13.05.2012 05:30 6,5 C 86 % 0,0 l/m 0,2 km/h (0 Bft) W-NW 292 4,3 C 4,5 C 1,9 km/h (1 Bft)
13.05.2012 05:32 6,5 C 86 % 0,0 l/m 0,5 km/h (0 Bft) W 270 4,3 C 4,4 C 1,9 km/h (1 Bft)
13.05.2012 05:34 6,4 C 86 % 0,0 l/m 0,5 km/h (0 Bft) N 360 4,2 C 4,4 C 1,8 km/h (1 Bft)
13.05.2012 05:36 6,4 C 86 % 0,0 l/m 0,5 km/h (0 Bft) S-SW 202 4,2 C 4,4 C 0,0 km/h (0 Bft)
13.05.2012 05:38 6,4 C 86 % 0,0 l/m 0,5 km/h (0 Bft) O-SO 112 4,2 C 4,3 C 0,0 km/h (0 Bft)
13.05.2012 05:40 6,3 C 86 % 0,0 l/m 0,3 km/h (0 Bft) N 360 4,1 C 4,3 C 0,0 km/h (0 Bft)
13.05.2012 05:42 6,4 C 87 % 0,0 l/m 0,2 km/h (0 Bft) NO 45 4,4 C 4,2 C 0,0 km/h (0 Bft)
13.05.2012 05:44 6,3 C 86 % 0,0 l/m 0,2 km/h (0 Bft) NW 315 4,1 C 4,2 C 0,0 km/h (0 Bft)
13.05.2012 05:46 6,3 C 86 % 0,0 l/m 0,3 km/h (0 Bft) N-NO 22 4,1 C 4,2 C 0,0 km/h (0 Bft)
13.05.2012 05:48 6,3 C 86 % 0,0 l/m 0,5 km/h (0 Bft) N 360 4,1 C 4,1 C 2,1 km/h (1 Bft)
13.05.2012 05:50 6,3 C 86 % 0,0 l/m 0,6 km/h (0 Bft) N 360 4,1 C 4,1 C 2,1 km/h (1 Bft)
13.05.2012 05:52 6,3 C 86 % 0,0 l/m 0,6 km/h (0 Bft) NO 45 4,1 C 4,1 C 2,1 km/h (1 Bft)
13.05.2012 05:54 6,2 C 86 % 0,0 l/m 0,6 km/h (0 Bft) W-NW 292 4,0 C 4,1 C 1,8 km/h (1 Bft)
13.05.2012 05:56 6,2 C 86 % 0,0 l/m 0,5 km/h (0 Bft) W-NW 292 4,0 C 4,1 C 1,9 km/h (1 Bft)
13.05.2012 05:58 6,1 C 86 % 0,0 l/m 0,5 km/h (0 Bft) N 360 3,9 C 4,1 C 1,9 km/h (1 Bft)
13.05.2012 06:00 6,1 C 86 % 0,0 l/m 0,3 km/h (0 Bft) N-NO 22 3,9 C 4,1 C 0,0 km/h (0 Bft)
13.05.2012 06:02 6,1 C 86 % 0,0 l/m 0,3 km/h (0 Bft) N-NO 22 3,9 C 4,1 C 1,6 km/h (1 Bft)
13.05.2012 06:04 6,0 C 86 % 0,0 l/m 0,3 km/h (0 Bft) N 360 3,8 C 4,1 C 1,6 km/h (1 Bft)
13.05.2012 06:07 6,0 C 86 % 0,0 l/m 0,3 km/h (0 Bft) NO 45 3,8 C 4,1 C 0,0 km/h (0 Bft)
13.05.2012 06:08 6,0 C 86 % 0,0 l/m 0,2 km/h (0 Bft) NO 45 3,8 C 4,1 C 0,0 km/h (0 Bft)
13.05.2012 06:10 6,0 C 86 % 0,0 l/m 0,2 km/h (0 Bft) W-NW 292 3,8 C 4,1 C 0,0 km/h (0 Bft)
13.05.2012 06:12 6,1 C 86 % 0,0 l/m 0,2 km/h (0 Bft) N 360 3,9 C 4,1 C 0,0 km/h (0 Bft)
13.05.2012 06:14 6,1 C 86 % 0,0 l/m 0,0 km/h (0 Bft) N-NW 337 3,9 C 4,1 C 1,8 km/h (1 Bft)
13.05.2012 06:16 6,1 C 86 % 0,0 l/m 0,0 km/h (0 Bft) N 360 3,9 C 4,1 C 1,8 km/h (1 Bft)
13.05.2012 06:18 6,2 C 86 % 0,0 l/m 0,0 km/h (0 Bft) W 270 4,0 C 4,1 C 0,0 km/h (0 Bft)
13.05.2012 06:20 6,1 C 86 % 0,0 l/m 0,0 km/h (0 Bft) N-NW 337 3,9 C 4,1 C 0,0 km/h (0 Bft)
13.05.2012 06:22 6,1 C 86 % 0,0 l/m 0,0 km/h (0 Bft) NO 45 3,9 C 4,1 C 0,0 km/h (0 Bft)
13.05.2012 06:24 6,1 C 86 % 0,0 l/m 0,2 km/h (0 Bft) W-NW 292 3,9 C 4,1 C 2,3 km/h (1 Bft)
13.05.2012 06:26 6,1 C 86 % 0,0 l/m 0,2 km/h (0 Bft) N 360 3,9 C 4,1 C 2,3 km/h (1 Bft)
13.05.2012 06:28 6,1 C 86 % 0,0 l/m 0,3 km/h (0 Bft) N-NW 337 3,9 C 4,1 C 2,3 km/h (1 Bft)
13.05.2012 06:30 6,1 C 86 % 0,0 l/m 0,3 km/h (0 Bft) N 360 3,9 C 4,1 C 2,3 km/h (1 Bft)
13.05.2012 06:32 6,1 C 86 % 0,0 l/m 0,5 km/h (0 Bft) NO 45 3,9 C 4,1 C 0,0 km/h (0 Bft)
13.05.2012 06:34 6,3 C 86 % 0,0 l/m 0,5 km/h (0 Bft) N 360 4,1 C 4,1 C 0,0 km/h (0 Bft)
13.05.2012 06:36 6,2 C 86 % 0,0 l/m 0,6 km/h (0 Bft) NO 45 4,0 C 4,2 C 1,6 km/h (1 Bft)
13.05.2012 06:38 6,3 C 86 % 0,0 l/m 0,8 km/h (0 Bft) O 90 4,1 C 4,3 C 2,4 km/h (1 Bft)
13.05.2012 06:40 6,3 C 85 % 0,0 l/m 0,6 km/h (0 Bft) N-NO 22 4,0 C 4,3 C 2,4 km/h (1 Bft)
13.05.2012 06:42 6,3 C 85 % 0,0 l/m 1,0 km/h (0 Bft) N 360 4,0 C 4,3 C 4,0 km/h (1 Bft)
13.05.2012 06:44 6,3 C 85 % 0,0 l/m 1,0 km/h (0 Bft) NO 45 4,0 C 4,3 C 4,0 km/h (1 Bft)
13.05.2012 06:46 6,2 C 85 % 0,0 l/m 1,1 km/h (1 Bft) N 360 3,9 C 4,4 C 4,0 km/h (1 Bft)
13.05.2012 06:48 6,2 C 85 % 0,0 l/m 1,0 km/h (0 Bft) N-NO 22 3,9 C 4,4 C 0,0 km/h (0 Bft)
13.05.2012 06:50 6,2 C 85 % 0,0 l/m 0,8 km/h (0 Bft) NO 45 3,9 C 4,4 C 0,0 km/h (0 Bft)
13.05.2012 06:52 6,3 C 85 % 0,0 l/m 0,6 km/h (0 Bft) N-NO 22 4,0 C 4,5 C 0,0 km/h (0 Bft)
13.05.2012 06:54 6,3 C 85 % 0,0 l/m 0,5 km/h (0 Bft) NO 45 4,0 C 4,5 C 0,0 km/h (0 Bft)
13.05.2012 06:56 6,4 C 85 % 0,0 l/m 0,3 km/h (0 Bft) N-NO 22 4,1 C 4,5 C 1,8 km/h (1 Bft)
13.05.2012 06:58 6,5 C 85 % 0,0 l/m 0,6 km/h (0 Bft) N 360 4,2 C 4,6 C 1,8 km/h (1 Bft)
13.05.2012 07:00 6,5 C 85 % 0,0 l/m 0,6 km/h (0 Bft) N-NO 22 4,2 C 4,7 C 0,0 km/h (0 Bft)
13.05.2012 07:02 6,4 C 85 % 0,0 l/m 0,6 km/h (0 Bft) N-NW 337 4,1 C 4,7 C 0,0 km/h (0 Bft)
13.05.2012 07:04 6,5 C 85 % 0,0 l/m 0,5 km/h (0 Bft) N-NO 22 4,2 C 4,8 C 0,0 km/h (0 Bft)
13.05.2012 07:06 6,7 C 84 % 0,0 l/m 0,5 km/h (0 Bft) N-NO 22 4,2 C 4,8 C 0,0 km/h (0 Bft)
13.05.2012 07:08 6,7 C 85 % 0,0 l/m 0,2 km/h (0 Bft) O-SO 112 4,4 C 5,0 C 0,0 km/h (0 Bft)
13.05.2012 07:10 6,7 C 85 % 0,0 l/m 0,2 km/h (0 Bft) W 270 4,4 C 5,1 C 0,0 km/h (0 Bft)
13.05.2012 07:12 6,8 C 84 % 0,0 l/m 0,2 km/h (0 Bft) NO 45 4,3 C 5,2 C 0,0 km/h (0 Bft)
13.05.2012 07:14 6,9 C 84 % 0,0 l/m 0,3 km/h (0 Bft) W-SW 247 4,4 C 5,4 C 2,7 km/h (1 Bft)
13.05.2012 07:16 6,9 C 84 % 0,0 l/m 0,5 km/h (0 Bft) W-NW 292 4,4 C 5,4 C 2,7 km/h (1 Bft)
13.05.2012 07:18 6,9 C 84 % 0,0 l/m 0,6 km/h (0 Bft) N-NW 337 4,4 C 5,5 C 2,7 km/h (1 Bft)
13.05.2012 07:20 7,1 C 83 % 0,0 l/m 1,1 km/h (1 Bft) NO 45 4,4 C 5,6 C 2,9 km/h (1 Bft)
13.05.2012 07:22 7,1 C 83 % 0,0 l/m 1,3 km/h (1 Bft) W-SW 247 4,4 C 5,6 C 3,9 km/h (1 Bft)
13.05.2012 07:24 7,1 C 83 % 0,0 l/m 1,6 km/h (1 Bft) N 360 4,4 C 5,6 C 3,9 km/h (1 Bft)
13.05.2012 07:26 7,1 C 83 % 0,0 l/m 1,6 km/h (1 Bft) N-NO 22 4,4 C 5,7 C 5,5 km/h (1 Bft)
13.05.2012 07:28 7,2 C 83 % 0,0 l/m 1,6 km/h (1 Bft) SO 135 4,5 C 5,7 C 3,5 km/h (1 Bft)
13.05.2012 07:30 7,5 C 82 % 0,0 l/m 1,4 km/h (1 Bft) N-NW 337 4,6 C 5,7 C 3,5 km/h (1 Bft)
13.05.2012 07:32 7,7 C 82 % 0,0 l/m 1,4 km/h (1 Bft) N 360 4,8 C 5,9 C 0,0 km/h (0 Bft)
13.05.2012 07:34 7,9 C 82 % 0,0 l/m 1,3 km/h (1 Bft) W 270 5,0 C 6,3 C 2,3 km/h (1 Bft)
13.05.2012 07:36 7,8 C 81 % 0,0 l/m 1,1 km/h (1 Bft) W-NW 292 4,7 C 6,5 C 2,3 km/h (1 Bft)
13.05.2012 07:38 7,9 C 80 % 0,0 l/m 1,3 km/h (1 Bft) W 270 4,7 C 6,6 C 3,7 km/h (1 Bft)
13.05.2012 07:40 7,7 C 79 % 0,0 l/m 1,3 km/h (1 Bft) W-NW 292 4,3 C 6,5 C 4,8 km/h (1 Bft)
13.05.2012 07:42 7,6 C 79 % 0,0 l/m 1,4 km/h (1 Bft) N-NW 337 4,2 C 6,4 C 4,8 km/h (1 Bft)
13.05.2012 07:44 7,5 C 79 % 0,0 l/m 1,6 km/h (1 Bft) N-NW 337 4,1 C 6,3 C 2,1 km/h (1 Bft)
13.05.2012 07:46 7,5 C 79 % 0,0 l/m 1,8 km/h (1 Bft) W-SW 247 4,1 C 6,2 C 3,1 km/h (1 Bft)
13.05.2012 07:48 7,3 C 79 % 0,0 l/m 2,1 km/h (1 Bft) W-NW 292 3,9 C 6,1 C 3,2 km/h (1 Bft)
13.05.2012 07:50 7,3 C 79 % 0,0 l/m 2,3 km/h (1 Bft) W 270 3,9 C 6,0 C 6,6 km/h (2 Bft)
13.05.2012 07:52 7,2 C 79 % 0,0 l/m 2,3 km/h (1 Bft) W-NW 292 3,8 C 6,0 C 6,6 km/h (2 Bft)
13.05.2012 07:54 7,2 C 79 % 0,0 l/m 2,7 km/h (1 Bft) W 270 3,8 C 6,0 C 4,7 km/h (1 Bft)
13.05.2012 07:56 7,3 C 80 % 0,0 l/m 2,7 km/h (1 Bft) W-NW 292 4,1 C 6,0 C 6,6 km/h (2 Bft)
13.05.2012 07:58 7,2 C 79 % 0,0 l/m 2,7 km/h (1 Bft) W 270 3,8 C 6,0 C 5,8 km/h (2 Bft)
13.05.2012 08:00 7,2 C 80 % 0,0 l/m 2,7 km/h (1 Bft) W 270 4,0 C 6,0 C 3,1 km/h (1 Bft)
13.05.2012 08:02 7,2 C 80 % 0,0 l/m 2,6 km/h (1 Bft) W-SW 247 4,0 C 6,0 C 4,5 km/h (1 Bft)
13.05.2012 08:04 7,3 C 80 % 0,0 l/m 2,6 km/h (1 Bft) N 360 4,1 C 6,0 C 4,5 km/h (1 Bft)
13.05.2012 08:06 7,2 C 80 % 0,0 l/m 2,9 km/h (1 Bft) W-NW 292 4,0 C 6,0 C 3,9 km/h (1 Bft)
13.05.2012 08:08 7,2 C 80 % 0,0 l/m 2,7 km/h (1 Bft) N 360 4,0 C 6,0 C 3,9 km/h (1 Bft)
13.05.2012 08:10 7,2 C 81 % 0,0 l/m 2,4 km/h (1 Bft) NW 315 4,2 C 6,0 C 2,6 km/h (1 Bft)
13.05.2012 08:12 7,3 C 81 % 0,0 l/m 2,4 km/h (1 Bft) W 270 4,3 C 6,1 C 2,9 km/h (1 Bft)
13.05.2012 08:14 7,5 C 80 % 0,0 l/m 2,6 km/h (1 Bft) N 360 4,3 C 6,2 C 5,0 km/h (1 Bft)
13.05.2012 08:16 7,5 C 80 % 0,0 l/m 2,1 km/h (1 Bft) N-NW 337 4,3 C 6,3 C 5,0 km/h (1 Bft)
13.05.2012 08:18 7,5 C 80 % 0,0 l/m 1,9 km/h (1 Bft) N 360 4,3 C 6,3 C 3,7 km/h (1 Bft)
13.05.2012 08:20 7,6 C 80 % 0,0 l/m 2,1 km/h (1 Bft) N 360 4,4 C 6,5 C 4,7 km/h (1 Bft)
13.05.2012 08:22 7,9 C 80 % 0,0 l/m 1,9 km/h (1 Bft) NW 315 4,7 C 6,7 C 5,1 km/h (1 Bft)
13.05.2012 08:24 7,8 C 79 % 0,0 l/m 2,1 km/h (1 Bft) W 270 4,4 C 6,9 C 5,1 km/h (1 Bft)
13.05.2012 08:26 7,9 C 79 % 0,0 l/m 2,4 km/h (1 Bft) W 270 4,5 C 6,9 C 4,3 km/h (1 Bft)
13.05.2012 08:28 7,9 C 79 % 0,0 l/m 2,1 km/h (1 Bft) W-SW 247 4,5 C 7,1 C 3,4 km/h (1 Bft)
13.05.2012 08:30 7,9 C 79 % 0,0 l/m 2,6 km/h (1 Bft) W-NW 292 4,5 C 7,2 C 4,2 km/h (1 Bft)
13.05.2012 08:32 7,9 C 78 % 0,0 l/m 3,2 km/h (1 Bft) S-SW 202 4,3 C 7,2 C 5,8 km/h (2 Bft)
13.05.2012 08:34 7,8 C 78 % 0,0 l/m 3,5 km/h (1 Bft) W-NW 292 4,2 C 7,2 C 5,8 km/h (2 Bft)
13.05.2012 08:36 7,9 C 78 % 0,0 l/m 3,4 km/h (1 Bft) W-SW 247 4,3 C 7,1 C 7,4 km/h (2 Bft)
13.05.2012 08:38 7,9 C 79 % 0,0 l/m 3,5 km/h (1 Bft) W 270 4,5 C 7,1 C 6,8 km/h (2 Bft)
13.05.2012 08:40 7,9 C 78 % 0,0 l/m 4,0 km/h (1 Bft) S-SW 202 4,3 C 6,8 C 6,8 km/h (2 Bft)
13.05.2012 08:42 7,9 C 79 % 0,0 l/m 3,9 km/h (1 Bft) W-NW 292 4,5 C 7,1 C 7,1 km/h (2 Bft)
13.05.2012 08:44 7,9 C 79 % 0,0 l/m 3,2 km/h (1 Bft) W-NW 292 4,5 C 7,2 C 7,1 km/h (2 Bft)
13.05.2012 08:46 8,0 C 79 % 0,0 l/m 2,9 km/h (1 Bft) W-NW 292 4,6 C 7,2 C 9,3 km/h (2 Bft)
13.05.2012 08:48 8,1 C 79 % 0,0 l/m 3,2 km/h (1 Bft) S-SW 202 4,7 C 7,2 C 6,3 km/h (2 Bft)
13.05.2012 08:50 8,0 C 78 % 0,0 l/m 2,9 km/h (1 Bft) W 270 4,4 C 7,5 C 6,4 km/h (2 Bft)
13.05.2012 08:52 8,1 C 78 % 0,0 l/m 3,2 km/h (1 Bft) N 360 4,5 C 7,5 C 6,4 km/h (2 Bft)
13.05.2012 08:54 8,7 C 79 % 0,0 l/m 3,5 km/h (1 Bft) W 270 5,3 C 7,7 C 8,7 km/h (2 Bft)
13.05.2012 08:56 8,9 C 77 % 0,0 l/m 4,2 km/h (1 Bft) W 270 5,1 C 8,2 C 9,5 km/h (2 Bft)
13.05.2012 08:58 9,1 C 78 % 0,0 l/m 4,2 km/h (1 Bft) NO 45 5,5 C 9,0 C 9,5 km/h (2 Bft)
13.05.2012 09:00 8,9 C 77 % 0,0 l/m 4,2 km/h (1 Bft) N 360 5,1 C 9,6 C 4,2 km/h (1 Bft)
13.05.2012 09:02 9,2 C 77 % 0,0 l/m 3,9 km/h (1 Bft) W-SW 247 5,4 C 9,6 C 7,4 km/h (2 Bft)
13.05.2012 09:04 9,0 C 75 % 0,0 l/m 4,8 km/h (1 Bft) W-NW 292 4,8 C 9,5 C 8,9 km/h (2 Bft)
13.05.2012 09:06 9,1 C 75 % 0,0 l/m 4,5 km/h (1 Bft) W-NW 292 4,9 C 9,1 C 9,5 km/h (2 Bft)
13.05.2012 09:08 8,7 C 75 % 0,0 l/m 4,7 km/h (1 Bft) W-NW 292 4,5 C 8,9 C 6,1 km/h (2 Bft)
13.05.2012 09:10 8,4 C 74 % 0,0 l/m 5,5 km/h (1 Bft) W 270 4,0 C 8,3 C 7,9 km/h (2 Bft)
13.05.2012 09:12 8,3 C 75 % 0,0 l/m 5,8 km/h (2 Bft) W-NW 292 4,1 C 7,7 C 7,9 km/h (2 Bft)
13.05.2012 09:14 8,3 C 76 % 0,0 l/m 5,6 km/h (1 Bft) NW 315 4,3 C 7,5 C 5,8 km/h (2 Bft)
13.05.2012 09:16 8,1 C 77 % 0,0 l/m 5,0 km/h (1 Bft) W 270 4,3 C 7,6 C 9,7 km/h (2 Bft)
13.05.2012 09:18 8,1 C 77 % 0,0 l/m 5,1 km/h (1 Bft) N 360 4,3 C 7,4 C 5,3 km/h (1 Bft)
13.05.2012 09:20 8,0 C 76 % 0,0 l/m 4,8 km/h (1 Bft) W 270 4,0 C 7,3 C 7,1 km/h (2 Bft)
13.05.2012 09:22 8,0 C 76 % 0,0 l/m 4,7 km/h (1 Bft) W-SW 247 4,0 C 7,3 C 7,1 km/h (2 Bft)
13.05.2012 09:24 8,1 C 77 % 0,0 l/m 4,8 km/h (1 Bft) W-NW 292 4,3 C 6,9 C 5,3 km/h (1 Bft)
13.05.2012 09:26 8,0 C 76 % 0,0 l/m 4,3 km/h (1 Bft) W-NW 292 4,0 C 7,2 C 10,3 km/h (2 Bft)
13.05.2012 09:28 8,1 C 77 % 0,0 l/m 4,0 km/h (1 Bft) W 270 4,3 C 7,3 C 5,6 km/h (1 Bft)
13.05.2012 09:30 8,2 C 76 % 0,0 l/m 4,2 km/h (1 Bft) NW 315 4,2 C 7,3 C 3,9 km/h (1 Bft)
13.05.2012 09:32 8,2 C 76 % 0,0 l/m 3,9 km/h (1 Bft) S-SW 202 4,2 C 7,6 C 6,9 km/h (2 Bft)
13.05.2012 09:34 8,2 C 76 % 0,0 l/m 3,9 km/h (1 Bft) W-NW 292 4,2 C 7,6 C 6,9 km/h (2 Bft)
13.05.2012 09:36 8,2 C 76 % 0,0 l/m 4,0 km/h (1 Bft) W-NW 292 4,2 C 7,6 C 4,3 km/h (1 Bft)
13.05.2012 09:38 8,4 C 77 % 0,0 l/m 3,7 km/h (1 Bft) N-NW 337 4,6 C 7,7 C 3,9 km/h (1 Bft)
13.05.2012 09:40 8,4 C 76 % 0,0 l/m 3,5 km/h (1 Bft) W-SW 247 4,4 C 7,9 C 3,9 km/h (1 Bft)
13.05.2012 09:42 8,4 C 75 % 0,0 l/m 3,7 km/h (1 Bft) W 270 4,2 C 8,0 C 5,3 km/h (1 Bft)
13.05.2012 09:44 8,5 C 76 % 0,0 l/m 2,9 km/h (1 Bft) W-SW 247 4,5 C 8,0 C 5,3 km/h (1 Bft)
13.05.2012 09:46 8,7 C 76 % 0,0 l/m 2,7 km/h (1 Bft) W-NW 292 4,7 C 8,1 C 3,9 km/h (1 Bft)
13.05.2012 09:48 8,7 C 75 % 0,0 l/m 2,9 km/h (1 Bft) N 360 4,5 C 8,1 C 3,9 km/h (1 Bft)
13.05.2012 09:50 8,8 C 76 % 0,0 l/m 2,6 km/h (1 Bft) S 180 4,8 C 8,4 C 2,3 km/h (1 Bft)
13.05.2012 09:52 9,1 C 75 % 0,0 l/m 2,4 km/h (1 Bft) N-NW 337 4,9 C 8,6 C 2,9 km/h (1 Bft)
13.05.2012 09:54 9,5 C 74 % 0,0 l/m 2,3 km/h (1 Bft) NW 315 5,1 C 9,0 C 4,2 km/h (1 Bft)
13.05.2012 09:56 9,3 C 74 % 0,0 l/m 2,6 km/h (1 Bft) S-SW 202 4,9 C 9,5 C 4,8 km/h (1 Bft)
13.05.2012 09:58 9,2 C 74 % 0,0 l/m 2,9 km/h (1 Bft) W 270 4,8 C 9,7 C 8,7 km/h (2 Bft)
13.05.2012 10:00 9,3 C 75 % 0,0 l/m 3,4 km/h (1 Bft) W-NW 292 5,1 C 9,6 C 8,7 km/h (2 Bft)
13.05.2012 10:02 9,5 C 73 % 0,0 l/m 4,0 km/h (1 Bft) SO 135 4,9 C 9,7 C 5,6 km/h (1 Bft)
13.05.2012 10:04 9,5 C 73 % 0,0 l/m 4,3 km/h (1 Bft) N-NW 337 4,9 C 9,4 C 5,6 km/h (1 Bft)
13.05.2012 10:06 9,3 C 73 % 0,0 l/m 4,8 km/h (1 Bft) SW 225 4,7 C 9,3 C 9,5 km/h (2 Bft)
13.05.2012 10:08 9,3 C 73 % 0,0 l/m 5,0 km/h (1 Bft) W-SW 247 4,7 C 9,1 C 9,5 km/h (2 Bft)
13.05.2012 10:10 9,5 C 73 % 0,0 l/m 4,8 km/h (1 Bft) W 270 4,9 C 9,0 C 5,6 km/h (1 Bft)
13.05.2012 10:12 9,9 C 74 % 0,0 l/m 4,2 km/h (1 Bft) W-SW 247 5,5 C 9,3 C 5,0 km/h (1 Bft)
13.05.2012 10:14 9,9 C 74 % 0,0 l/m 3,9 km/h (1 Bft) S 180 5,5 C 9,6 C 3,9 km/h (1 Bft)
13.05.2012 10:16 9,9 C 72 % 0,0 l/m 4,2 km/h (1 Bft) W-SW 247 5,1 C 9,8 C 6,4 km/h (2 Bft)
13.05.2012 10:18 9,9 C 72 % 0,0 l/m 3,2 km/h (1 Bft) SW 225 5,1 C 9,7 C 6,4 km/h (2 Bft)
13.05.2012 10:20 10,0 C 72 % 0,0 l/m 3,1 km/h (1 Bft) SW 225 5,2 C 9,8 C 3,2 km/h (1 Bft)
13.05.2012 10:22 10,3 C 72 % 0,0 l/m 2,9 km/h (1 Bft) W-SW 247 5,5 C 10,0 C 6,3 km/h (2 Bft)
13.05.2012 10:24 10,5 C 70 % 0,0 l/m 3,4 km/h (1 Bft) W-SW 247 5,3 C 10,2 C 3,4 km/h (1 Bft)
13.05.2012 10:26 10,8 C 70 % 0,0 l/m 3,2 km/h (1 Bft) S 180 5,6 C 10,4 C 3,4 km/h (1 Bft)
13.05.2012 10:28 11,1 C 69 % 0,0 l/m 3,2 km/h (1 Bft) S 180 5,6 C 10,9 C 2,7 km/h (1 Bft)
13.05.2012 10:30 11,5 C 68 % 0,0 l/m 3,7 km/h (1 Bft) W-SW 247 5,8 C 11,5 C 2,4 km/h (1 Bft)
13.05.2012 10:32 11,3 C 68 % 0,0 l/m 4,3 km/h (1 Bft) S-SW 202 5,6 C 12,0 C 7,6 km/h (2 Bft)
13.05.2012 10:34 10,9 C 69 % 0,0 l/m 4,5 km/h (1 Bft) NW 315 5,4 C 12,0 C 7,7 km/h (2 Bft)
13.05.2012 10:36 10,7 C 65 % 0,0 l/m 4,8 km/h (1 Bft) W 270 4,4 C 11,7 C 11,4 km/h (2 Bft)
13.05.2012 10:38 10,4 C 66 % 0,0 l/m 4,8 km/h (1 Bft) W-NW 292 4,3 C 11,2 C 6,4 km/h (2 Bft)
13.05.2012 10:40 10,1 C 67 % 0,0 l/m 4,8 km/h (1 Bft) W-NW 292 4,3 C 10,7 C 6,4 km/h (2 Bft)
13.05.2012 10:42 10,0 C 68 % 0,0 l/m 4,8 km/h (1 Bft) W-NW 292 4,4 C 10,2 C 6,3 km/h (2 Bft)
13.05.2012 10:44 9,7 C 68 % 0,0 l/m 4,7 km/h (1 Bft) S-SO 157 4,1 C 9,8 C 5,0 km/h (1 Bft)
13.05.2012 10:46 9,6 C 69 % 0,0 l/m 4,3 km/h (1 Bft) W-SW 247 4,2 C 9,7 C 3,9 km/h (1 Bft)
13.05.2012 10:48 9,7 C 68 % 0,0 l/m 4,5 km/h (1 Bft) S 180 4,1 C 9,4 C 3,5 km/h (1 Bft)
13.05.2012 10:50 9,6 C 69 % 0,0 l/m 4,3 km/h (1 Bft) NW 315 4,2 C 9,4 C 6,9 km/h (2 Bft)
13.05.2012 10:52 9,6 C 69 % 0,0 l/m 4,0 km/h (1 Bft) NW 315 4,2 C 9,4 C 6,9 km/h (2 Bft)
13.05.2012 10:54 9,6 C 69 % 0,0 l/m 3,9 km/h (1 Bft) W-NW 292 4,2 C 9,3 C 5,5 km/h (1 Bft)
13.05.2012 10:56 9,7 C 70 % 0,0 l/m 3,7 km/h (1 Bft) N-NW 337 4,5 C 9,3 C 5,5 km/h (1 Bft)
13.05.2012 10:58 9,5 C 71 % 0,0 l/m 3,7 km/h (1 Bft) W-NW 292 4,5 C 9,2 C 4,3 km/h (1 Bft)
13.05.2012 11:00 9,5 C 70 % 0,0 l/m 4,2 km/h (1 Bft) W-SW 247 4,3 C 9,2 C 10,5 km/h (2 Bft)
13.05.2012 11:02 9,6 C 71 % 0,0 l/m 4,3 km/h (1 Bft) W-NW 292 4,6 C 9,1 C 10,5 km/h (2 Bft)
13.05.2012 11:04 9,6 C 72 % 0,0 l/m 4,2 km/h (1 Bft) W-NW 292 4,8 C 9,2 C 4,3 km/h (1 Bft)
13.05.2012 11:06 9,8 C 71 % 0,0 l/m 4,3 km/h (1 Bft) N-NW 337 4,8 C 9,3 C 5,6 km/h (1 Bft)
13.05.2012 11:08 10,5 C 70 % 0,0 l/m 4,2 km/h (1 Bft) S 180 5,3 C 9,6 C 5,6 km/h (1 Bft)
13.05.2012 11:10 11,0 C 71 % 0,0 l/m 3,9 km/h (1 Bft) N-NW 337 5,9 C 10,1 C 4,7 km/h (1 Bft)
13.05.2012 11:12 11,5 C 68 % 0,0 l/m 4,2 km/h (1 Bft) W-SW 247 5,8 C 11,0 C 7,6 km/h (2 Bft)
13.05.2012 11:14 11,3 C 65 % 0,0 l/m 4,8 km/h (1 Bft) W 270 5,0 C 11,5 C 8,9 km/h (2 Bft)
13.05.2012 11:16 10,9 C 65 % 0,0 l/m 4,8 km/h (1 Bft) W 270 4,6 C 11,5 C 8,9 km/h (2 Bft)
13.05.2012 11:18 10,5 C 66 % 0,0 l/m 5,3 km/h (1 Bft) W 270 4,4 C 11,1 C 7,1 km/h (2 Bft)
13.05.2012 11:20 10,1 C 66 % 0,0 l/m 5,6 km/h (1 Bft) W 270 4,0 C 10,6 C 7,1 km/h (2 Bft)
13.05.2012 11:22 9,9 C 67 % 0,0 l/m 5,8 km/h (2 Bft) W-SW 247 4,1 C 10,1 C 5,1 km/h (1 Bft)
13.05.2012 11:24 9,9 C 68 % 0,0 l/m 4,8 km/h (1 Bft) W-NW 292 4,3 C 9,9 C 5,8 km/h (2 Bft)
13.05.2012 11:26 9,9 C 68 % 0,0 l/m 4,5 km/h (1 Bft) W 270 4,3 C 9,8 C 5,8 km/h (2 Bft)
13.05.2012 11:28 9,8 C 68 % 0,0 l/m 4,5 km/h (1 Bft) S-SW 202 4,2 C 9,4 C 4,0 km/h (1 Bft)
13.05.2012 11:30 9,7 C 68 % 0,0 l/m 4,5 km/h (1 Bft) W-SW 247 4,1 C 9,2 C 5,1 km/h (1 Bft)
13.05.2012 11:32 9,7 C 68 % 0,0 l/m 4,3 km/h (1 Bft) W-SW 247 4,1 C 9,2 C 6,4 km/h (2 Bft)
13.05.2012 11:34 9,9 C 68 % 0,0 l/m 4,8 km/h (1 Bft) W 270 4,3 C 9,0 C 6,4 km/h (2 Bft)
13.05.2012 11:36 9,9 C 69 % 0,0 l/m 4,5 km/h (1 Bft) W 270 4,5 C 9,0 C 6,9 km/h (2 Bft)
13.05.2012 11:38 9,9 C 69 % 0,0 l/m 4,7 km/h (1 Bft) W-SW 247 4,5 C 9,0 C 6,9 km/h (2 Bft)
13.05.2012 11:40 9,9 C 68 % 0,0 l/m 4,5 km/h (1 Bft) W-NW 292 4,3 C 9,1 C 6,6 km/h (2 Bft)
13.05.2012 11:42 9,9 C 68 % 0,0 l/m 4,7 km/h (1 Bft) S-SW 202 4,3 C 9,0 C 7,4 km/h (2 Bft)
13.05.2012 11:44 10,0 C 69 % 0,0 l/m 4,8 km/h (1 Bft) W-NW 292 4,6 C 9,0 C 10,8 km/h (2 Bft)
13.05.2012 11:46 9,9 C 68 % 0,0 l/m 5,3 km/h (1 Bft) N-NW 337 4,3 C 8,8 C 10,8 km/h (2 Bft)
13.05.2012 11:48 9,9 C 68 % 0,0 l/m 5,6 km/h (1 Bft) W 270 4,3 C 8,7 C 10,9 km/h (2 Bft)
13.05.2012 11:50 9,8 C 69 % 0,0 l/m 5,3 km/h (1 Bft) S 180 4,4 C 8,8 C 10,9 km/h (2 Bft)
13.05.2012 11:52 9,9 C 68 % 0,0 l/m 5,5 km/h (1 Bft) W 270 4,3 C 8,7 C 5,0 km/h (1 Bft)
13.05.2012 11:54 9,8 C 69 % 0,0 l/m 5,1 km/h (1 Bft) W 270 4,4 C 8,8 C 5,3 km/h (1 Bft)
13.05.2012 11:56 9,8 C 69 % 0,0 l/m 5,5 km/h (1 Bft) W-SW 247 4,4 C 8,7 C 13,2 km/h (3 Bft)
13.05.2012 11:58 9,6 C 70 % 0,0 l/m 5,3 km/h (1 Bft) W 270 4,4 C 8,6 C 10,9 km/h (2 Bft)
13.05.2012 12:00 9,7 C 71 % 0,0 l/m 5,1 km/h (1 Bft) W-SW 247 4,7 C 8,6 C 6,3 km/h (2 Bft)
13.05.2012 12:02 9,7 C 71 % 0,0 l/m 5,5 km/h (1 Bft) S-SW 202 4,7 C 8,4 C 6,0 km/h (2 Bft)
13.05.2012 12:04 9,6 C 71 % 0,0 l/m 5,3 km/h (1 Bft) W-NW 292 4,6 C 8,5 C 4,5 km/h (1 Bft)
13.05.2012 12:06 9,7 C 71 % 0,0 l/m 5,0 km/h (1 Bft) W 270 4,7 C 8,6 C 5,3 km/h (1 Bft)
13.05.2012 12:08 9,6 C 72 % 0,0 l/m 4,2 km/h (1 Bft) W-SW 247 4,8 C 8,9 C 8,5 km/h (2 Bft)
13.05.2012 12:10 9,6 C 71 % 0,0 l/m 4,2 km/h (1 Bft) W-SW 247 4,6 C 8,9 C 8,5 km/h (2 Bft)
13.05.2012 12:12 9,5 C 71 % 0,0 l/m 4,0 km/h (1 Bft) NO 45 4,5 C 8,8 C 5,0 km/h (1 Bft)
13.05.2012 12:14 9,5 C 72 % 0,0 l/m 4,3 km/h (1 Bft) W-SW 247 4,7 C 8,6 C 8,5 km/h (2 Bft)
13.05.2012 12:16 9,5 C 71 % 0,0 l/m 4,8 km/h (1 Bft) S-SW 202 4,5 C 8,4 C 10,1 km/h (2 Bft)
13.05.2012 12:18 9,5 C 71 % 0,0 l/m 5,0 km/h (1 Bft) SO 135 4,5 C 8,3 C 10,1 km/h (2 Bft)
13.05.2012 12:20 9,5 C 71 % 0,0 l/m 4,5 km/h (1 Bft) W 270 4,5 C 8,4 C 4,8 km/h (1 Bft)
13.05.2012 12:22 9,5 C 71 % 0,0 l/m 4,8 km/h (1 Bft) NW 315 4,5 C 8,3 C 9,3 km/h (2 Bft)
13.05.2012 12:24 9,5 C 70 % 0,0 l/m 4,8 km/h (1 Bft) S 180 4,3 C 8,2 C 9,3 km/h (2 Bft)
13.05.2012 12:26 9,4 C 70 % 0,0 l/m 4,3 km/h (1 Bft) S-SW 202 4,2 C 8,4 C 5,0 km/h (1 Bft)
13.05.2012 12:28 9,4 C 69 % 0,0 l/m 4,2 km/h (1 Bft) W 270 4,0 C 8,4 C 5,3 km/h (1 Bft)
13.05.2012 12:30 9,4 C 68 % 0,0 l/m 5,0 km/h (1 Bft) W-NW 292 3,8 C 8,1 C 5,3 km/h (1 Bft)
13.05.2012 12:32 9,3 C 66 % 0,0 l/m 5,0 km/h (1 Bft) W-SW 247 3,3 C 8,1 C 5,0 km/h (1 Bft)
13.05.2012 12:34 9,3 C 66 % 0,0 l/m 4,7 km/h (1 Bft) W 270 3,3 C 8,2 C 6,6 km/h (2 Bft)
13.05.2012 12:36 9,3 C 64 % 0,0 l/m 5,3 km/h (1 Bft) W 270 2,8 C 8,1 C 6,6 km/h (2 Bft)
13.05.2012 12:38 9,3 C 64 % 0,0 l/m 5,3 km/h (1 Bft) W-NW 292 2,8 C 8,1 C 8,5 km/h (2 Bft)
13.05.2012 12:40 9,3 C 65 % 0,0 l/m 5,3 km/h (1 Bft) W 270 3,1 C 7,9 C 8,5 km/h (2 Bft)
13.05.2012 12:42 9,3 C 66 % 0,0 l/m 5,0 km/h (1 Bft) W-SW 247 3,3 C 8,2 C 8,5 km/h (2 Bft)
13.05.2012 12:44 9,3 C 66 % 0,0 l/m 5,1 km/h (1 Bft) N 360 3,3 C 8,2 C 5,8 km/h (2 Bft)
13.05.2012 12:46 9,3 C 67 % 0,0 l/m 4,8 km/h (1 Bft) N-NW 337 3,5 C 8,3 C 6,0 km/h (2 Bft)
13.05.2012 12:48 9,5 C 66 % 0,0 l/m 4,8 km/h (1 Bft) W-SW 247 3,5 C 8,3 C 8,2 km/h (2 Bft)
13.05.2012 12:50 9,4 C 67 % 0,0 l/m 4,0 km/h (1 Bft) SO 135 3,6 C 8,7 C 8,2 km/h (2 Bft)
13.05.2012 12:52 9,3 C 67 % 0,0 l/m 4,3 km/h (1 Bft) N-NW 337 3,5 C 8,5 C 7,9 km/h (2 Bft)
13.05.2012 12:54 9,2 C 67 % 0,0 l/m 5,1 km/h (1 Bft) W-NW 292 3,4 C 8,2 C 8,7 km/h (2 Bft)
13.05.2012 12:56 9,2 C 67 % 0,0 l/m 5,3 km/h (1 Bft) W-NW 292 3,4 C 8,1 C 8,7 km/h (2 Bft)
13.05.2012 12:58 9,2 C 68 % 0,0 l/m 5,3 km/h (1 Bft) O-NO 67 3,6 C 8,1 C 3,9 km/h (1 Bft)
13.05.2012 13:00 9,3 C 68 % 0,0 l/m 5,0 km/h (1 Bft) S-SW 202 3,7 C 8,3 C 5,3 km/h (1 Bft)
13.05.2012 13:02 9,3 C 68 % 0,0 l/m 5,0 km/h (1 Bft) W-NW 292 3,7 C 8,3 C 5,3 km/h (1 Bft)
13.05.2012 13:04 9,5 C 68 % 0,0 l/m 5,1 km/h (1 Bft) W-SW 247 3,9 C 8,4 C 8,9 km/h (2 Bft)
13.05.2012 13:06 9,4 C 68 % 0,0 l/m 5,0 km/h (1 Bft) W-SW 247 3,8 C 8,5 C 14,6 km/h (3 Bft)
13.05.2012 13:08 9,4 C 68 % 0,0 l/m 5,5 km/h (1 Bft) W-SW 247 3,8 C 8,3 C 9,5 km/h (2 Bft)
13.05.2012 13:10 9,5 C 66 % 0,0 l/m 6,4 km/h (2 Bft) W-SW 247 3,5 C 8,1 C 12,9 km/h (3 Bft)
13.05.2012 13:12 9,5 C 66 % 0,0 l/m 7,4 km/h (2 Bft) N-NW 337 3,5 C 6,9 C 15,0 km/h (3 Bft)
13.05.2012 13:14 9,5 C 66 % 0,0 l/m 7,6 km/h (2 Bft) W-NW 292 3,5 C 6,7 C 15,0 km/h (3 Bft)
13.05.2012 13:16 9,4 C 67 % 0,0 l/m 7,2 km/h (2 Bft) W-SW 247 3,6 C 7,1 C 15,0 km/h (3 Bft)
13.05.2012 13:18 9,6 C 66 % 0,0 l/m 7,1 km/h (2 Bft) S-SW 202 3,6 C 7,4 C 11,9 km/h (2 Bft)
13.05.2012 13:20 9,6 C 66 % 0,0 l/m 6,8 km/h (2 Bft) N-NW 337 3,6 C 7,8 C 4,2 km/h (1 Bft)
13.05.2012 13:22 9,6 C 65 % 0,0 l/m 6,0 km/h (2 Bft) W-NW 292 3,4 C 8,4 C 10,3 km/h (2 Bft)
13.05.2012 13:24 9,5 C 65 % 0,0 l/m 5,8 km/h (2 Bft) W 270 3,3 C 8,5 C 10,3 km/h (2 Bft)
13.05.2012 13:26 9,4 C 64 % 0,0 l/m 5,6 km/h (1 Bft) O-NO 67 2,9 C 8,4 C 6,3 km/h (2 Bft)
13.05.2012 13:28 9,5 C 65 % 0,0 l/m 6,4 km/h (2 Bft) W 270 3,3 C 8,2 C 11,3 km/h (2 Bft)
13.05.2012 13:30 9,5 C 64 % 0,0 l/m 6,1 km/h (2 Bft) S-SO 157 3,0 C 8,3 C 11,3 km/h (2 Bft)
13.05.2012 13:32 9,5 C 64 % 0,0 l/m 6,4 km/h (2 Bft) N-NW 337 3,0 C 8,3 C 8,4 km/h (2 Bft)
13.05.2012 13:34 9,6 C 63 % 0,0 l/m 6,1 km/h (2 Bft) SW 225 2,9 C 8,6 C 8,2 km/h (2 Bft)
13.05.2012 13:36 9,7 C 63 % 0,0 l/m 6,1 km/h (2 Bft) W-NW 292 3,0 C 8,6 C 12,6 km/h (3 Bft)
13.05.2012 13:38 9,7 C 62 % 0,0 l/m 6,4 km/h (2 Bft) W-SW 247 2,8 C 8,5 C 12,6 km/h (3 Bft)
13.05.2012 13:40 9,8 C 62 % 0,0 l/m 6,0 km/h (2 Bft) N-NW 337 2,9 C 8,6 C 7,6 km/h (2 Bft)
13.05.2012 13:42 10,0 C 63 % 0,0 l/m 6,1 km/h (2 Bft) N-NW 337 3,3 C 8,8 C 6,6 km/h (2 Bft)
13.05.2012 13:44 10,0 C 61 % 0,0 l/m 6,3 km/h (2 Bft) W-NW 292 2,8 C 8,9 C 8,4 km/h (2 Bft)
13.05.2012 13:46 9,9 C 61 % 0,0 l/m 6,6 km/h (2 Bft) W-SW 247 2,7 C 8,9 C 8,2 km/h (2 Bft)
13.05.2012 13:48 9,9 C 61 % 0,0 l/m 6,4 km/h (2 Bft) S 180 2,7 C 9,0 C 9,2 km/h (2 Bft)
13.05.2012 13:50 10,0 C 62 % 0,0 l/m 6,1 km/h (2 Bft) W-NW 292 3,1 C 9,2 C 9,2 km/h (2 Bft)
13.05.2012 13:52 10,2 C 61 % 0,0 l/m 5,8 km/h (2 Bft) N-NO 22 3,0 C 9,5 C 5,5 km/h (1 Bft)
13.05.2012 13:54 10,4 C 62 % 0,0 l/m 5,5 km/h (1 Bft) W 270 3,4 C 9,8 C 10,0 km/h (2 Bft)
13.05.2012 13:56 10,5 C 59 % 0,0 l/m 5,3 km/h (1 Bft) W-NW 292 2,8 C 10,1 C 10,0 km/h (2 Bft)
13.05.2012 13:58 10,5 C 58 % 0,0 l/m 5,3 km/h (1 Bft) S-SO 157 2,6 C 10,1 C 7,4 km/h (2 Bft)
13.05.2012 14:00 10,4 C 58 % 0,0 l/m 5,5 km/h (1 Bft) W 270 2,5 C 10,1 C 5,8 km/h (2 Bft)
13.05.2012 14:02 10,7 C 59 % 0,0 l/m 4,8 km/h (1 Bft) W-SW 247 3,0 C 10,2 C 5,8 km/h (2 Bft)
13.05.2012 14:04 10,8 C 60 % 0,0 l/m 5,3 km/h (1 Bft) O 90 3,4 C 10,5 C 4,3 km/h (1 Bft)
13.05.2012 14:06 10,9 C 60 % 0,0 l/m 4,5 km/h (1 Bft) W-NW 292 3,4 C 10,9 C 4,3 km/h (1 Bft)
13.05.2012 14:08 11,0 C 59 % 0,0 l/m 4,3 km/h (1 Bft) W 270 3,3 C 11,1 C 9,8 km/h (2 Bft)
13.05.2012 14:10 11,2 C 59 % 0,0 l/m 4,2 km/h (1 Bft) W-SW 247 3,5 C 11,2 C 9,8 km/h (2 Bft)
13.05.2012 14:12 11,5 C 58 % 0,0 l/m 3,5 km/h (1 Bft) W-SW 247 3,5 C 11,3 C 3,9 km/h (1 Bft)
13.05.2012 14:14 11,6 C 58 % 0,0 l/m 3,9 km/h (1 Bft) W 270 3,6 C 11,7 C 9,5 km/h (2 Bft)
13.05.2012 14:16 11,5 C 56 % 0,0 l/m 4,3 km/h (1 Bft) W-NW 292 3,0 C 11,9 C 11,3 km/h (2 Bft)
13.05.2012 14:18 11,6 C 54 % 0,0 l/m 4,8 km/h (1 Bft) NW 315 2,6 C 12,0 C 11,3 km/h (2 Bft)
13.05.2012 14:20 12,1 C 54 % 0,0 l/m 5,1 km/h (1 Bft) S 180 3,1 C 11,8 C 9,7 km/h (2 Bft)
13.05.2012 14:22 12,7 C 57 % 0,0 l/m 5,0 km/h (1 Bft) W-NW 292 4,4 C 12,2 C 7,1 km/h (2 Bft)
13.05.2012 14:24 13,1 C 55 % 0,0 l/m 5,1 km/h (1 Bft) W-SW 247 4,3 C 13,1 C 6,4 km/h (2 Bft)
13.05.2012 14:26 13,1 C 53 % 0,0 l/m 5,3 km/h (1 Bft) SW 225 3,7 C 13,7 C 10,1 km/h (2 Bft)
13.05.2012 14:28 12,8 C 54 % 0,0 l/m 5,1 km/h (1 Bft) SW 225 3,7 C 13,8 C 10,1 km/h (2 Bft)
13.05.2012 14:30 12,6 C 53 % 0,0 l/m 4,8 km/h (1 Bft) S 180 3,3 C 13,6 C 8,7 km/h (2 Bft)
13.05.2012 14:32 12,3 C 54 % 0,0 l/m 5,1 km/h (1 Bft) S-SW 202 3,3 C 13,3 C 7,6 km/h (2 Bft)
13.05.2012 14:34 12,4 C 53 % 0,0 l/m 5,6 km/h (1 Bft) S-SO 157 3,1 C 12,8 C 7,6 km/h (2 Bft)
13.05.2012 14:36 13,2 C 54 % 0,0 l/m 5,5 km/h (1 Bft) W 270 4,1 C 12,8 C 6,0 km/h (2 Bft)
13.05.2012 14:38 13,9 C 53 % 0,0 l/m 5,1 km/h (1 Bft) W-SW 247 4,5 C 13,2 C 8,7 km/h (2 Bft)
13.05.2012 14:40 14,0 C 49 % 0,0 l/m 5,1 km/h (1 Bft) W-SW 247 3,5 C 13,9 C 12,7 km/h (3 Bft)
13.05.2012 14:42 13,6 C 50 % 0,0 l/m 5,0 km/h (1 Bft) W 270 3,4 C 14,2 C 12,7 km/h (3 Bft)
13.05.2012 14:44 13,2 C 51 % 0,0 l/m 4,8 km/h (1 Bft) W 270 3,3 C 14,3 C 7,9 km/h (2 Bft)
13.05.2012 14:46 13,1 C 51 % 0,0 l/m 4,8 km/h (1 Bft) W-NW 292 3,2 C 14,1 C 11,3 km/h (2 Bft)
13.05.2012 14:48 12,8 C 49 % 0,0 l/m 5,3 km/h (1 Bft) W-SW 247 2,4 C 13,7 C 11,3 km/h (2 Bft)
13.05.2012 14:50 12,5 C 49 % 0,0 l/m 5,5 km/h (1 Bft) W-NW 292 2,1 C 13,4 C 10,9 km/h (2 Bft)
13.05.2012 14:52 12,3 C 50 % 0,0 l/m 5,1 km/h (1 Bft) N-NW 337 2,2 C 12,9 C 10,9 km/h (2 Bft)
13.05.2012 14:54 12,1 C 51 % 0,0 l/m 5,3 km/h (1 Bft) W-NW 292 2,3 C 12,6 C 4,7 km/h (1 Bft)
13.05.2012 14:56 12,1 C 51 % 0,0 l/m 5,5 km/h (1 Bft) W-NW 292 2,3 C 12,3 C 7,9 km/h (2 Bft)
13.05.2012 14:58 12,0 C 50 % 0,0 l/m 5,1 km/h (1 Bft) W-NW 292 1,9 C 12,1 C 8,0 km/h (2 Bft)
13.05.2012 15:00 11,9 C 50 % 0,0 l/m 5,0 km/h (1 Bft) S 180 1,8 C 11,9 C 8,0 km/h (2 Bft)
13.05.2012 15:02 11,7 C 52 % 0,0 l/m 3,9 km/h (1 Bft) W-SW 247 2,2 C 11,5 C 5,0 km/h (1 Bft)
13.05.2012 15:04 11,7 C 52 % 0,0 l/m 4,0 km/h (1 Bft) N-NW 337 2,2 C 11,4 C 9,2 km/h (2 Bft)
13.05.2012 15:06 11,6 C 53 % 0,0 l/m 4,2 km/h (1 Bft) W 270 2,4 C 11,3 C 9,2 km/h (2 Bft)
13.05.2012 15:08 11,5 C 53 % 0,0 l/m 3,7 km/h (1 Bft) N 360 2,3 C 11,0 C 6,3 km/h (2 Bft)
13.05.2012 15:10 11,2 C 52 % 0,0 l/m 3,9 km/h (1 Bft) W-NW 292 1,7 C 11,0 C 8,2 km/h (2 Bft)
13.05.2012 15:12 11,1 C 53 % 0,0 l/m 3,9 km/h (1 Bft) W 270 1,9 C 10,8 C 8,2 km/h (2 Bft)
13.05.2012 15:14 11,1 C 55 % 0,0 l/m 4,7 km/h (1 Bft) N-NW 337 2,4 C 10,4 C 8,7 km/h (2 Bft)
13.05.2012 15:16 10,7 C 56 % 0,0 l/m 4,5 km/h (1 Bft) N-NW 337 2,3 C 10,3 C 8,7 km/h (2 Bft)
13.05.2012 15:18 10,6 C 58 % 0,0 l/m 4,3 km/h (1 Bft) W 270 2,7 C 9,9 C 3,9 km/h (1 Bft)
13.05.2012 15:20 10,5 C 59 % 0,0 l/m 4,2 km/h (1 Bft) N-NO 22 2,8 C 9,8 C 2,4 km/h (1 Bft)
13.05.2012 15:22 10,5 C 59 % 0,0 l/m 3,9 km/h (1 Bft) W-SW 247 2,8 C 9,7 C 2,6 km/h (1 Bft)
13.05.2012 15:24 10,6 C 59 % 0,0 l/m 3,1 km/h (1 Bft) N 360 2,9 C 9,7 C 3,1 km/h (1 Bft)
13.05.2012 15:26 10,6 C 58 % 0,0 l/m 2,4 km/h (1 Bft) N 360 2,7 C 9,7 C 4,2 km/h (1 Bft)
13.05.2012 15:28 10,6 C 58 % 0,0 l/m 2,1 km/h (1 Bft) NW 315 2,7 C 9,6 C 4,2 km/h (1 Bft)
13.05.2012 15:30 10,7 C 59 % 0,0 l/m 2,1 km/h (1 Bft) N 360 3,0 C 9,6 C 3,1 km/h (1 Bft)
13.05.2012 15:32 10,7 C 59 % 0,0 l/m 2,3 km/h (1 Bft) NO 45 3,0 C 9,6 C 2,7 km/h (1 Bft)
13.05.2012 15:34 10,7 C 58 % 0,0 l/m 2,9 km/h (1 Bft) W 270 2,8 C 9,7 C 5,1 km/h (1 Bft)
13.05.2012 15:36 10,6 C 58 % 0,0 l/m 3,1 km/h (1 Bft) N-NW 337 2,7 C 9,7 C 6,4 km/h (2 Bft)
13.05.2012 15:38 10,7 C 60 % 0,0 l/m 3,2 km/h (1 Bft) W 270 3,3 C 9,6 C 6,4 km/h (2 Bft)
13.05.2012 15:40 10,7 C 60 % 0,0 l/m 3,4 km/h (1 Bft) S 180 3,3 C 9,7 C 3,4 km/h (1 Bft)
13.05.2012 15:42 10,8 C 59 % 0,0 l/m 3,4 km/h (1 Bft) W-NW 292 3,1 C 9,8 C 5,1 km/h (1 Bft)
13.05.2012 15:44 10,9 C 60 % 0,0 l/m 3,2 km/h (1 Bft) N 360 3,4 C 9,8 C 5,1 km/h (1 Bft)
13.05.2012 15:46 10,7 C 58 % 0,0 l/m 3,2 km/h (1 Bft) N-NW 337 2,8 C 9,9 C 3,7 km/h (1 Bft)
13.05.2012 15:48 10,6 C 59 % 0,0 l/m 3,2 km/h (1 Bft) W-NW 292 2,9 C 9,9 C 6,9 km/h (2 Bft)
13.05.2012 15:50 10,5 C 60 % 0,0 l/m 3,4 km/h (1 Bft) N-NO 22 3,1 C 9,9 C 6,9 km/h (2 Bft)
13.05.2012 15:52 10,5 C 60 % 0,0 l/m 3,2 km/h (1 Bft) N-NO 22 3,1 C 9,8 C 4,2 km/h (1 Bft)
13.05.2012 15:54 10,4 C 60 % 0,0 l/m 2,6 km/h (1 Bft) N 360 3,0 C 9,9 C 0,0 km/h (0 Bft)
13.05.2012 15:56 10,7 C 60 % 0,0 l/m 2,3 km/h (1 Bft) S 180 3,3 C 9,9 C 0,0 km/h (0 Bft)
13.05.2012 15:58 10,7 C 59 % 0,0 l/m 1,8 km/h (1 Bft) N-NW 337 3,0 C 10,1 C 4,0 km/h (1 Bft)
13.05.2012 16:00 10,7 C 59 % 0,0 l/m 1,3 km/h (1 Bft) W-SW 247 3,0 C 10,1 C 4,3 km/h (1 Bft)
13.05.2012 16:02 10,5 C 59 % 0,0 l/m 1,1 km/h (1 Bft) W-NW 292 2,8 C 10,1 C 4,3 km/h (1 Bft)
13.05.2012 16:04 10,5 C 60 % 0,0 l/m 1,3 km/h (1 Bft) N-NO 22 3,1 C 10,1 C 4,2 km/h (1 Bft)
13.05.2012 16:06 10,4 C 59 % 0,0 l/m 1,6 km/h (1 Bft) S-SW 202 2,7 C 10,0 C 1,9 km/h (1 Bft)
13.05.2012 16:08 10,4 C 58 % 0,0 l/m 2,1 km/h (1 Bft) NW 315 2,5 C 9,9 C 3,7 km/h (1 Bft)
13.05.2012 16:10 10,3 C 59 % 0,0 l/m 2,3 km/h (1 Bft) W 270 2,6 C 9,8 C 3,7 km/h (1 Bft)
13.05.2012 16:12 10,3 C 59 % 0,0 l/m 2,6 km/h (1 Bft) W 270 2,6 C 9,7 C 4,8 km/h (1 Bft)
13.05.2012 16:14 10,3 C 60 % 0,0 l/m 3,2 km/h (1 Bft) W-NW 292 2,9 C 9,6 C 7,1 km/h (2 Bft)
13.05.2012 16:16 10,3 C 57 % 0,0 l/m 4,0 km/h (1 Bft) W-NW 292 2,2 C 9,5 C 4,7 km/h (1 Bft)
13.05.2012 16:18 10,3 C 57 % 0,0 l/m 4,3 km/h (1 Bft) N-NW 337 2,2 C 9,3 C 8,7 km/h (2 Bft)
13.05.2012 16:20 10,1 C 58 % 0,0 l/m 4,8 km/h (1 Bft) W-SW 247 2,2 C 9,0 C 8,7 km/h (2 Bft)
13.05.2012 16:22 10,1 C 58 % 0,0 l/m 5,1 km/h (1 Bft) W 270 2,2 C 8,9 C 8,5 km/h (2 Bft)
13.05.2012 16:24 10,3 C 58 % 0,0 l/m 5,1 km/h (1 Bft) NW 315 2,4 C 8,9 C 8,5 km/h (2 Bft)
13.05.2012 16:26 10,2 C 57 % 0,0 l/m 5,1 km/h (1 Bft) NW 315 2,1 C 8,9 C 5,3 km/h (1 Bft)
13.05.2012 16:28 10,3 C 58 % 0,0 l/m 4,8 km/h (1 Bft) W-SW 247 2,4 C 9,0 C 3,7 km/h (1 Bft)
13.05.2012 16:30 10,4 C 57 % 0,0 l/m 4,7 km/h (1 Bft) W 270 2,3 C 9,0 C 5,3 km/h (1 Bft)
13.05.2012 16:31 10,4 C 57 % 0,0 l/m 4,7 km/h (1 Bft) W 270 2,3 C 9,0 C 5,3 km/h (1 Bft)
13.05.2012 16:32 10,4 C 57 % 0,0 l/m 4,3 km/h (1 Bft) N 360 2,3 C 9,3 C 5,8 km/h (2 Bft)
13.05.2012 16:34 10,4 C 55 % 0,0 l/m 4,5 km/h (1 Bft) SW 225 1,8 C 9,2 C 8,0 km/h (2 Bft)
13.05.2012 16:36 10,5 C 55 % 0,0 l/m 4,0 km/h (1 Bft) W 270 1,8 C 9,4 C 8,0 km/h (2 Bft)
13.05.2012 16:38 10,5 C 56 % 0,0 l/m 4,0 km/h (1 Bft) N-NW 337 2,1 C 9,4 C 4,5 km/h (1 Bft)
13.05.2012 16:40 10,4 C 57 % 0,0 l/m 3,7 km/h (1 Bft) S-SW 202 2,3 C 9,5 C 4,5 km/h (1 Bft)
13.05.2012 16:42 10,5 C 57 % 0,0 l/m 3,4 km/h (1 Bft) W-NW 292 2,3 C 9,6 C 3,7 km/h (1 Bft)
13.05.2012 16:44 10,7 C 57 % 0,0 l/m 3,1 km/h (1 Bft) NO 45 2,5 C 9,7 C 2,1 km/h (1 Bft)
13.05.2012 16:46 10,7 C 56 % 0,0 l/m 2,4 km/h (1 Bft) W 270 2,3 C 9,8 C 5,5 km/h (1 Bft)
13.05.2012 16:48 10,5 C 56 % 0,0 l/m 2,6 km/h (1 Bft) W 270 2,1 C 9,8 C 5,5 km/h (1 Bft)
13.05.2012 16:50 10,5 C 56 % 0,0 l/m 2,7 km/h (1 Bft) N-NW 337 2,1 C 9,8 C 5,5 km/h (1 Bft)
13.05.2012 16:52 10,5 C 55 % 0,0 l/m 2,9 km/h (1 Bft) W 270 1,8 C 9,8 C 8,7 km/h (2 Bft)
13.05.2012 16:54 10,4 C 55 % 0,0 l/m 3,4 km/h (1 Bft) W-SW 247 1,8 C 9,8 C 6,9 km/h (2 Bft)
13.05.2012 16:56 10,4 C 56 % 0,0 l/m 3,7 km/h (1 Bft) W-SW 247 2,0 C 9,8 C 6,9 km/h (2 Bft)
13.05.2012 16:59 10,4 C 56 % 0,0 l/m 3,7 km/h (1 Bft) N-NW 337 2,0 C 9,8 C 3,4 km/h (1 Bft)
13.05.2012 17:00 10,4 C 57 % 0,0 l/m 3,4 km/h (1 Bft) O 90 2,3 C 9,9 C 2,9 km/h (1 Bft)
13.05.2012 17:02 10,5 C 57 % 0,0 l/m 3,2 km/h (1 Bft) N-NW 337 2,3 C 9,9 C 3,2 km/h (1 Bft)
13.05.2012 17:04 10,4 C 56 % 0,0 l/m 3,4 km/h (1 Bft) W 270 2,0 C 9,9 C 8,7 km/h (2 Bft)
13.05.2012 17:06 10,4 C 56 % 0,0 l/m 3,2 km/h (1 Bft) NO 45 2,0 C 9,9 C 8,7 km/h (2 Bft)
13.05.2012 17:08 10,5 C 56 % 0,0 l/m 3,4 km/h (1 Bft) W 270 2,1 C 9,9 C 4,0 km/h (1 Bft)
13.05.2012 17:10 10,4 C 56 % 0,0 l/m 3,7 km/h (1 Bft) N-NW 337 2,0 C 9,9 C 6,4 km/h (2 Bft)
13.05.2012 17:12 10,4 C 55 % 0,0 l/m 4,0 km/h (1 Bft) N-NO 22 1,8 C 9,9 C 6,4 km/h (2 Bft)
13.05.2012 17:14 10,4 C 55 % 0,0 l/m 4,2 km/h (1 Bft) S 180 1,8 C 9,8 C 6,4 km/h (2 Bft)
13.05.2012 17:16 10,4 C 55 % 0,0 l/m 3,7 km/h (1 Bft) W-NW 292 1,8 C 9,7 C 4,5 km/h (1 Bft)
13.05.2012 17:18 10,5 C 55 % 0,0 l/m 3,7 km/h (1 Bft) W-NW 292 1,8 C 9,8 C 4,5 km/h (1 Bft)
13.05.2012 17:20 10,5 C 55 % 0,0 l/m 4,0 km/h (1 Bft) N 360 1,8 C 9,8 C 6,6 km/h (2 Bft)
13.05.2012 17:22 10,5 C 55 % 0,0 l/m 3,9 km/h (1 Bft) W-NW 292 1,8 C 9,7 C 6,6 km/h (2 Bft)
13.05.2012 17:24 10,5 C 55 % 0,0 l/m 3,5 km/h (1 Bft) NW 315 1,8 C 9,7 C 9,0 km/h (2 Bft)
13.05.2012 17:26 10,5 C 55 % 0,0 l/m 3,5 km/h (1 Bft) N-NW 337 1,8 C 9,7 C 9,0 km/h (2 Bft)
13.05.2012 17:28 10,5 C 55 % 0,0 l/m 3,7 km/h (1 Bft) W 270 1,8 C 9,8 C 4,7 km/h (1 Bft)
13.05.2012 17:30 10,5 C 54 % 0,0 l/m 3,9 km/h (1 Bft) W-NW 292 1,6 C 9,8 C 4,7 km/h (1 Bft)
13.05.2012 17:32 10,5 C 55 % 0,0 l/m 3,4 km/h (1 Bft) NW 315 1,8 C 9,8 C 4,5 km/h (1 Bft)
13.05.2012 17:34 10,5 C 54 % 0,0 l/m 3,4 km/h (1 Bft) W-SW 247 1,6 C 9,8 C 4,3 km/h (1 Bft)
13.05.2012 17:36 10,7 C 54 % 0,0 l/m 3,4 km/h (1 Bft) W-SW 247 1,8 C 9,9 C 2,9 km/h (1 Bft)
13.05.2012 17:38 10,7 C 54 % 0,0 l/m 3,2 km/h (1 Bft) W-NW 292 1,8 C 9,9 C 3,7 km/h (1 Bft)
13.05.2012 17:40 10,7 C 55 % 0,0 l/m 3,2 km/h (1 Bft) W-NW 292 2,0 C 9,9 C 3,7 km/h (1 Bft)
13.05.2012 17:42 10,7 C 54 % 0,0 l/m 3,5 km/h (1 Bft) W-NW 292 1,8 C 9,9 C 6,9 km/h (2 Bft)
13.05.2012 17:44 10,5 C 54 % 0,0 l/m 3,5 km/h (1 Bft) NW 315 1,6 C 9,9 C 6,9 km/h (2 Bft)
13.05.2012 17:46 10,5 C 54 % 0,0 l/m 3,7 km/h (1 Bft) W-NW 292 1,6 C 9,9 C 4,5 km/h (1 Bft)
13.05.2012 17:48 10,5 C 54 % 0,0 l/m 3,2 km/h (1 Bft) W-SW 247 1,6 C 9,8 C 3,5 km/h (1 Bft)
13.05.2012 17:50 10,5 C 54 % 0,0 l/m 3,2 km/h (1 Bft) W-NW 292 1,6 C 9,8 C 4,7 km/h (1 Bft)
13.05.2012 17:52 10,4 C 55 % 0,0 l/m 3,9 km/h (1 Bft) W 270 1,8 C 9,8 C 7,2 km/h (2 Bft)
13.05.2012 18:11 9,7 C 62 % 0,0 l/m 3,5 km/h (1 Bft) W-SW 247 2,8 C 8,7 C 2,4 km/h (1 Bft)
13.05.2012 18:12 9,7 C 62 % 0,0 l/m 3,7 km/h (1 Bft) W 270 2,8 C 8,7 C 5,0 km/h (1 Bft)
13.05.2012 18:18 9,5 C 63 % 0,0 l/m 4,0 km/h (1 Bft) W-NW 292 2,8 C 8,4 C 5,0 km/h (1 Bft)
13.05.2012 18:20 9,4 C 63 % 0,0 l/m 3,9 km/h (1 Bft) W-NW 292 2,7 C 8,3 C 5,0 km/h (1 Bft)
13.05.2012 18:22 10,5 C 55 % 0,0 l/m 3,7 km/h (1 Bft) W 270 1,8 C 9,8 C 4,7 km/h (1 Bft)
13.05.2012 18:25 10,5 C 55 % 0,0 l/m 3,7 km/h (1 Bft) W 270 1,8 C 9,8 C 4,7 km/h (1 Bft)
13.05.2012 18:30 9,3 C 64 % 0,0 l/m 2,7 km/h (1 Bft) W 270 2,8 C 8,4 C 1,9 km/h (1 Bft)
13.05.2012 18:35 9,3 C 64 % 0,0 l/m 1,9 km/h (1 Bft) W 270 2,8 C 8,4 C 2,9 km/h (1 Bft)
13.05.2012 18:40 9,3 C 63 % 0,0 l/m 1,9 km/h (1 Bft) W-NW 292 2,6 C 8,5 C 3,9 km/h (1 Bft)
13.05.2012 18:45 9,6 C 62 % 0,0 l/m 2,7 km/h (1 Bft) W 270 2,7 C 9,0 C 7,6 km/h (2 Bft)
13.05.2012 18:50 9,6 C 62 % 0,0 l/m 4,3 km/h (1 Bft) N-NW 337 2,7 C 10,6 C 9,0 km/h (2 Bft)
13.05.2012 18:55 9,5 C 60 % 0,0 l/m 5,1 km/h (1 Bft) N-NO 22 2,1 C 10,4 C 3,4 km/h (1 Bft)
13.05.2012 19:00 9,5 C 61 % 0,0 l/m 3,9 km/h (1 Bft) S-SO 157 2,4 C 10,5 C 1,6 km/h (1 Bft)
13.05.2012 19:05 9,5 C 61 % 0,0 l/m 2,4 km/h (1 Bft) W-NW 292 2,4 C 10,4 C 4,2 km/h (1 Bft)
13.05.2012 19:10 9,3 C 62 % 0,0 l/m 2,4 km/h (1 Bft) N-NW 337 2,4 C 9,7 C 4,5 km/h (1 Bft)
13.05.2012 19:15 9,3 C 62 % 0,0 l/m 2,7 km/h (1 Bft) W-NW 292 2,4 C 9,3 C 3,7 km/h (1 Bft)
13.05.2012 19:20 9,4 C 62 % 0,0 l/m 2,4 km/h (1 Bft) N-NW 337 2,5 C 9,0 C 2,6 km/h (1 Bft)
13.05.2012 19:25 9,5 C 62 % 0,0 l/m 2,4 km/h (1 Bft) N 360 2,6 C 9,4 C 4,8 km/h (1 Bft)
13.05.2012 19:30 9,4 C 62 % 0,0 l/m 2,4 km/h (1 Bft) N 360 2,5 C 10,4 C 1,9 km/h (1 Bft)
13.05.2012 19:35 9,5 C 62 % 0,0 l/m 2,6 km/h (1 Bft) W 270 2,6 C 10,8 C 2,4 km/h (1 Bft)
13.05.2012 19:40 9,5 C 61 % 0,0 l/m 2,3 km/h (1 Bft) W 270 2,4 C 11,3 C 2,1 km/h (1 Bft)
13.05.2012 19:45 9,5 C 62 % 0,0 l/m 1,8 km/h (1 Bft) SW 225 2,6 C 11,5 C 0,0 km/h (0 Bft)
13.05.2012 19:50 9,5 C 61 % 0,0 l/m 1,3 km/h (1 Bft) N 360 2,4 C 11,7 C 0,0 km/h (0 Bft)
13.05.2012 19:55 9,5 C 61 % 0,0 l/m 1,0 km/h (0 Bft) W 270 2,4 C 11,9 C 2,3 km/h (1 Bft)
13.05.2012 20:00 9,3 C 62 % 0,0 l/m 0,5 km/h (0 Bft) N-NW 337 2,4 C 11,8 C 0,0 km/h (0 Bft)
13.05.2012 20:05 9,2 C 64 % 0,0 l/m 0,3 km/h (0 Bft) N 360 2,8 C 11,8 C 0,0 km/h (0 Bft)
13.05.2012 20:10 9,1 C 65 % 0,0 l/m 0,0 km/h (0 Bft) O-NO 67 2,9 C 11,5 C 0,0 km/h (0 Bft)
13.05.2012 20:15 9,0 C 64 % 0,0 l/m 0,0 km/h (0 Bft) O-SO 112 2,6 C 11,2 C 0,0 km/h (0 Bft)
13.05.2012 20:20 8,7 C 66 % 0,0 l/m 0,0 km/h (0 Bft) N 360 2,7 C 10,0 C 0,0 km/h (0 Bft)
13.05.2012 20:25 8,4 C 66 % 0,0 l/m 0,0 km/h (0 Bft) N 360 2,4 C 9,0 C 0,0 km/h (0 Bft)
13.05.2012 20:30 8,1 C 67 % 0,0 l/m 0,0 km/h (0 Bft) N-NO 22 2,3 C 7,6 C 0,0 km/h (0 Bft)
13.05.2012 20:35 7,9 C 69 % 0,0 l/m 0,0 km/h (0 Bft) NW 315 2,6 C 6,9 C 0,0 km/h (0 Bft)
13.05.2012 20:40 7,7 C 71 % 0,0 l/m 0,0 km/h (0 Bft) NO 45 2,8 C 6,4 C 0,0 km/h (0 Bft)
13.05.2012 20:45 7,5 C 72 % 0,0 l/m 0,0 km/h (0 Bft) N-NO 22 2,8 C 5,7 C 0,0 km/h (0 Bft)
13.05.2012 20:50 6,9 C 72 % 0,0 l/m 0,2 km/h (0 Bft) S-SO 157 2,2 C 5,1 C 1,9 km/h (1 Bft)
13.05.2012 20:55 6,8 C 72 % 0,0 l/m 0,2 km/h (0 Bft) N-NO 22 2,1 C 4,7 C 0,0 km/h (0 Bft)
13.05.2012 21:00 6,4 C 73 % 0,0 l/m 0,2 km/h (0 Bft) N-NO 22 1,9 C 4,1 C 0,0 km/h (0 Bft)
13.05.2012 21:05 6,3 C 74 % 0,0 l/m 0,3 km/h (0 Bft) N 360 2,0 C 3,8 C 0,0 km/h (0 Bft)
13.05.2012 21:10 6,0 C 74 % 0,0 l/m 0,2 km/h (0 Bft) NO 45 1,7 C 3,4 C 0,0 km/h (0 Bft)
13.05.2012 21:15 5,9 C 75 % 0,0 l/m 0,0 km/h (0 Bft) O 90 1,8 C 3,3 C 1,8 km/h (1 Bft)
13.05.2012 21:20 5,5 C 76 % 0,0 l/m 0,2 km/h (0 Bft) N-NO 22 1,6 C 2,7 C 0,0 km/h (0 Bft)
13.05.2012 21:25 5,5 C 77 % 0,0 l/m 0,3 km/h (0 Bft) N-NO 22 1,8 C 2,4 C 1,9 km/h (1 Bft)
13.05.2012 21:30 5,3 C 77 % 0,0 l/m 0,3 km/h (0 Bft) N-NO 22 1,6 C 2,6 C 0,0 km/h (0 Bft)
13.05.2012 21:35 5,3 C 77 % 0,0 l/m 0,5 km/h (0 Bft) W-NW 292 1,6 C 2,6 C 0,0 km/h (0 Bft)
13.05.2012 21:40 5,0 C 77 % 0,0 l/m 0,2 km/h (0 Bft) N-NO 22 1,3 C 2,1 C 0,0 km/h (0 Bft)
13.05.2012 21:45 4,8 C 78 % 0,0 l/m 0,0 km/h (0 Bft) NO 45 1,3 C 2,0 C 2,1 km/h (1 Bft)
13.05.2012 21:50 4,7 C 79 % 0,0 l/m 0,5 km/h (0 Bft) NO 45 1,4 C 1,8 C 0,0 km/h (0 Bft)
13.05.2012 21:55 4,7 C 79 % 0,0 l/m 0,5 km/h (0 Bft) NO 45 1,4 C 1,7 C 0,0 km/h (0 Bft)
13.05.2012 22:00 4,7 C 78 % 0,0 l/m 0,0 km/h (0 Bft) NW 315 1,2 C 1,4 C 0,0 km/h (0 Bft)
13.05.2012 22:05 4,5 C 78 % 0,0 l/m 0,0 km/h (0 Bft) S-SW 202 1,0 C 1,2 C 0,0 km/h (0 Bft)
13.05.2012 22:10 4,5 C 78 % 0,0 l/m 0,2 km/h (0 Bft) N-NO 22 1,0 C 0,9 C 1,6 km/h (1 Bft)
13.05.2012 22:15 4,4 C 79 % 0,0 l/m 0,2 km/h (0 Bft) SO 135 1,1 C 0,9 C 2,1 km/h (1 Bft)
13.05.2012 22:20 4,5 C 79 % 0,0 l/m 0,8 km/h (0 Bft) N 360 1,2 C 1,1 C 0,0 km/h (0 Bft)
13.05.2012 22:25 4,3 C 79 % 0,0 l/m 0,6 km/h (0 Bft) NW 315 1,0 C 1,1 C 0,0 km/h (0 Bft)
13.05.2012 22:30 4,3 C 80 % 0,0 l/m 0,0 km/h (0 Bft) NO 45 1,2 C 1,0 C 0,0 km/h (0 Bft)
13.05.2012 22:35 4,3 C 80 % 0,0 l/m 0,0 km/h (0 Bft) O-NO 67 1,2 C 1,0 C 0,0 km/h (0 Bft)
13.05.2012 22:40 4,1 C 80 % 0,0 l/m 0,0 km/h (0 Bft) O 90 1,0 C 0,9 C 0,0 km/h (0 Bft)
13.05.2012 22:45 4,1 C 80 % 0,0 l/m 0,0 km/h (0 Bft) O 90 1,0 C 0,8 C 0,0 km/h (0 Bft)
13.05.2012 22:50 4,1 C 80 % 0,0 l/m 0,0 km/h (0 Bft) O 90 1,0 C 0,6 C 0,0 km/h (0 Bft)
13.05.2012 22:55 4,1 C 80 % 0,0 l/m 0,0 km/h (0 Bft) W-NW 292 1,0 C 0,7 C 0,0 km/h (0 Bft)
13.05.2012 23:00 4,1 C 80 % 0,0 l/m 0,0 km/h (0 Bft) O 90 1,0 C 0,7 C 0,0 km/h (0 Bft)
13.05.2012 23:05 4,1 C 80 % 0,0 l/m 0,0 km/h (0 Bft) S 180 1,0 C 0,6 C 0,0 km/h (0 Bft)
13.05.2012 23:10 4,0 C 80 % 0,0 l/m 0,0 km/h (0 Bft) W-NW 292 0,9 C 0,4 C 0,0 km/h (0 Bft)
13.05.2012 23:15 3,9 C 80 % 0,0 l/m 0,0 km/h (0 Bft) W-NW 292 0,8 C 0,4 C 0,0 km/h (0 Bft)
13.05.2012 23:20 3,9 C 80 % 0,0 l/m 0,0 km/h (0 Bft) N 360 0,8 C 0,4 C 0,0 km/h (0 Bft)
13.05.2012 23:25 3,9 C 80 % 0,0 l/m 0,0 km/h (0 Bft) N 360 0,8 C 0,5 C 0,0 km/h (0 Bft)
13.05.2012 23:30 3,9 C 80 % 0,0 l/m 0,0 km/h (0 Bft) N 360 0,8 C 0,4 C 0,0 km/h (0 Bft)
13.05.2012 23:35 3,7 C 80 % 0,0 l/m 0,0 km/h (0 Bft) N 360 0,6 C 0,3 C 0,0 km/h (0 Bft)
13.05.2012 23:40 3,6 C 81 % 0,0 l/m 0,0 km/h (0 Bft) NO 45 0,7 C 0,3 C 0,0 km/h (0 Bft)
13.05.2012 23:45 3,6 C 81 % 0,0 l/m 0,0 km/h (0 Bft) NO 45 0,7 C 0,2 C 0,0 km/h (0 Bft)
13.05.2012 23:50 3,6 C 80 % 0,0 l/m 0,0 km/h (0 Bft) NO 45 0,5 C 0,0 C 0,0 km/h (0 Bft)
13.05.2012 23:55 3,5 C 80 % 0,0 l/m 0,0 km/h (0 Bft) NO 45 0,4 C 0,0 C 0,0 km/h (0 Bft)
_ Min-Zeit 23:55 14:40 - 00:38 - - 23:55 23:50 00:02
Minimum _ 3,5 C 49 % - 0,0 km/h (0 Bft) - - 0,4 C 0,0 C 0,0 km/h (0 Bft)
_ Max-Zeit 14:40 00:54 00:00 13:14 - - 11:10 14:44 13:12
Maximum _ 14,0 C 87 % 0,0 l/m 7,6 km/h
W-NW (2 Bft)
- - 5,9 C 14,3 C 15,0 km/h
N-NW (3 Bft)
Durchschnitt _ 8,1 C 74 % #0,0 l/m 2,1 km/h (1 Bft) W - 3,5 C 6,9 C 3,4 km/h (1 Bft)